Observation data for Guadalupe Mtns Park on 07/11/2020      Previous  Date  Next       Current Mesonet Observations  Soil Data  Daily Summary Page  Observations in Plain Language
KGU1 110500Z 03005KT 28/09 A3026 RMK A01 T02810094  RH  032%=      5-min Rain = 0
KGU1 110501Z 07005KT 28/09 A3026 RMK A01 T02820094  RH  032%=      5-min Rain = 0
KGU1 110502Z 03008KT 28/10 A3026 RMK A01 T02810095  RH  032%=      5-min Rain = 0
KGU1 110503Z 02007KT 28/10 A3026 RMK A01 T02800095  RH  032%=      5-min Rain = 0
KGU1 110504Z 02007KT 28/10 A3026 RMK A01 T02790096  RH  033%=      5-min Rain = 0
KGU1 110505Z 03007KT 28/10 A3026 RMK A01 T02770096  RH  033%=      5-min Rain = 0
KGU1 110506Z 04008KT 28/10 A3026 RMK A01 T02760097  RH  034%=      5-min Rain = 0
KGU1 110507Z 01006KT 28/10 A3026 RMK A01 T02770097  RH  033%=      5-min Rain = 0
KGU1 110508Z 02005KT 28/10 A3026 RMK A01 T02780098  RH  033%=      5-min Rain = 0
KGU1 110509Z 02005KT 28/10 A3026 RMK A01 T02780099  RH  034%=      5-min Rain = 0
KGU1 110510Z 02004KT 28/10 A3026 RMK A01 T02780099  RH  034%=      5-min Rain = 0
KGU1 110511Z 03005KT 28/10 A3026 RMK A01 T02760100  RH  034%=      5-min Rain = 0
KGU1 110512Z 03004KT 28/10 A3026 RMK A01 T02760100  RH  034%=      5-min Rain = 0
KGU1 110513Z 03005KT 28/10 A3026 RMK A01 T02760100  RH  034%=      5-min Rain = 0
KGU1 110514Z 01006KT 28/10 A3026 RMK A01 T02760101  RH  035%=      5-min Rain = 0
KGU1 110515Z 03006KT 28/10 A3027 RMK A01 T02760101  RH  035%=      5-min Rain = 0
KGU1 110516Z 03004KT 28/10 A3026 RMK A01 T02760101  RH  034%=      5-min Rain = 0
KGU1 110517Z 05006KT 28/10 A3026 RMK A01 T02770102  RH  035%=      5-min Rain = 0
KGU1 110518Z 06007KT 28/10 A3026 RMK A01 T02760102  RH  035%=      5-min Rain = 0
KGU1 110519Z 05005KT 28/10 A3026 RMK A01 T02760102  RH  035%=      5-min Rain = 0
KGU1 110520Z 03004KT 28/10 A3026 RMK A01 T02770102  RH  035%=      5-min Rain = 0
KGU1 110521Z 04006KT 28/10 A3026 RMK A01 T02760104  RH  035%=      5-min Rain = 0
KGU1 110522Z 05005KT 28/10 A3026 RMK A01 T02750104  RH  035%=      5-min Rain = 0
KGU1 110523Z 04004KT 27/10 A3026 RMK A01 T02740104  RH  036%=      5-min Rain = 0
KGU1 110524Z 05006KT 27/10 A3026 RMK A01 T02730104  RH  036%=      5-min Rain = 0
KGU1 110525Z 07005KT 27/11 A3026 RMK A01 T02740105  RH  036%=      5-min Rain = 0
KGU1 110526Z 02006KT 27/11 A3026 RMK A01 T02740105  RH  036%=      5-min Rain = 0
KGU1 110527Z 03006KT 27/11 A3027 RMK A01 T02740106  RH  036%=      5-min Rain = 0
KGU1 110528Z 06005KT 27/11 A3027 RMK A01 T02740106  RH  036%=      5-min Rain = 0
KGU1 110529Z 05003KT 27/11 A3026 RMK A01 T02740105  RH  036%=      5-min Rain = 0
KGU1 110530Z 02004KT 27/11 A3027 RMK A01 T02740106  RH  036%=      5-min Rain = 0
KGU1 110531Z 02007KT 27/11 A3027 RMK A01 T02720106  RH  037%=      5-min Rain = 0
KGU1 110532Z 03006KT 27/11 A3027 RMK A01 T02720106  RH  037%=      5-min Rain = 0
KGU1 110533Z 02005KT 27/11 A3027 RMK A01 T02730106  RH  036%=      5-min Rain = 0
KGU1 110534Z 02007KT 27/11 A3027 RMK A01 T02730107  RH  037%=      5-min Rain = 0
KGU1 110535Z 02008KT 27/11 A3027 RMK A01 T02720108  RH  037%=      5-min Rain = 0
KGU1 110536Z 01007KT 27/11 A3027 RMK A01 T02740109  RH  037%=      5-min Rain = 0
KGU1 110537Z 02007KT 28/11 A3026 RMK A01 T02750108  RH  037%=      5-min Rain = 0
KGU1 110538Z 02010KT 28/11 A3027 RMK A01 T02750110  RH  037%=      5-min Rain = 0
KGU1 110539Z 02008KT 28/11 A3027 RMK A01 T02760109  RH  037%=      5-min Rain = 0
KGU1 110540Z 35008KT 28/11 A3027 RMK A01 T02760111  RH  037%=      5-min Rain = 0
KGU1 110541Z 02008KT 28/11 A3027 RMK A01 T02760111  RH  037%=      5-min Rain = 0
KGU1 110542Z 04008KT 27/11 A3027 RMK A01 T02730111  RH  038%=      5-min Rain = 0
KGU1 110543Z 04006KT 27/11 A3027 RMK A01 T02720111  RH  038%=      5-min Rain = 0
KGU1 110544Z 03005KT 27/11 A3027 RMK A01 T02720113  RH  038%=      5-min Rain = 0
KGU1 110545Z 04007KT 27/11 A3027 RMK A01 T02720114  RH  039%=      5-min Rain = 0
KGU1 110546Z 03004KT 27/11 A3027 RMK A01 T02720113  RH  038%=      5-min Rain = 0
KGU1 110547Z 03006KT 27/11 A3027 RMK A01 T02710113  RH  039%=      5-min Rain = 0
KGU1 110548Z 03007KT 27/11 A3027 RMK A01 T02700112  RH  039%=      5-min Rain = 0
KGU1 110549Z 04007KT 27/11 A3027 RMK A01 T02690113  RH  039%=      5-min Rain = 0
KGU1 110550Z 05006KT 27/12 A3027 RMK A01 T02680116  RH  040%=      5-min Rain = 0
KGU1 110551Z 04004KT 27/12 A3027 RMK A01 T02690120  RH  041%=      5-min Rain = 0
KGU1 110552Z 01006KT 27/12 A3027 RMK A01 T02710119  RH  040%=      5-min Rain = 0
KGU1 110553Z 02007KT 27/12 A3027 RMK A01 T02720120  RH  040%=      5-min Rain = 0
KGU1 110554Z 02009KT 27/12 A3027 RMK A01 T02710120  RH  041%=      5-min Rain = 0
KGU1 110555Z 02007KT 27/12 A3027 RMK A01 T02700121  RH  041%=      5-min Rain = 0
KGU1 110556Z 02007KT 27/12 A3027 RMK A01 T02700121  RH  041%=      5-min Rain = 0
KGU1 110557Z 04006KT 27/12 A3027 RMK A01 T02700123  RH  042%=      5-min Rain = 0
KGU1 110558Z 06003KT 27/12 A3027 RMK A01 T02690123  RH  042%=      5-min Rain = 0
KGU1 110559Z 03003KT 27/12 A3027 RMK A01 T02670123  RH  042%=      5-min Rain = 0
KGU1 110600Z 01006KT 27/12 A3027 RMK A01 T02660123  RH  043%=      5-min Rain = 0
KGU1 110601Z 02005KT 27/12 A3027 RMK A01 T02660123  RH  042%=      5-min Rain = 0
KGU1 110602Z 04005KT 27/12 A3027 RMK A01 T02650123  RH  043%=      5-min Rain = 0
KGU1 110603Z 04005KT 26/12 A3027 RMK A01 T02640123  RH  043%=      5-min Rain = 0
KGU1 110604Z 05006KT 26/12 A3027 RMK A01 T02630123  RH  044%=      5-min Rain = 0
KGU1 110605Z 05007KT 26/13 A3027 RMK A01 T02620125  RH  044%=      5-min Rain = 0
KGU1 110606Z 05006KT 26/13 A3027 RMK A01 T02610126  RH  045%=      5-min Rain = 0
KGU1 110607Z 06004KT 26/13 A3027 RMK A01 T02620127  RH  045%=      5-min Rain = 0
KGU1 110608Z 03004KT 27/13 A3027 RMK A01 T02650128  RH  044%=      5-min Rain = 0
KGU1 110609Z 01006KT 26/13 A3027 RMK A01 T02640127  RH  044%=      5-min Rain = 0
KGU1 110610Z 03005KT 26/13 A3027 RMK A01 T02630128  RH  045%=      5-min Rain = 0
KGU1 110611Z 03007KT 26/13 A3027 RMK A01 T02620128  RH  045%=      5-min Rain = 0
KGU1 110612Z 05006KT 26/13 A3027 RMK A01 T02610129  RH  046%=      5-min Rain = 0
KGU1 110613Z 04005KT 26/13 A3027 RMK A01 T02610129  RH  046%=      5-min Rain = 0
KGU1 110614Z 05004KT 26/13 A3027 RMK A01 T02620130  RH  046%=      5-min Rain = 0
KGU1 110615Z 04006KT 26/13 A3027 RMK A01 T02620130  RH  046%=      5-min Rain = 0
KGU1 110616Z 01008KT 26/13 A3027 RMK A01 T02620131  RH  046%=      5-min Rain = 0
KGU1 110617Z 02007KT 26/13 A3027 RMK A01 T02630133  RH  046%=      5-min Rain = 0
KGU1 110618Z 01005KT 27/13 A3027 RMK A01 T02660133  RH  046%=      5-min Rain = 0
KGU1 110619Z 03005KT 27/13 A3027 RMK A01 T02660133  RH  046%=      5-min Rain = 0
KGU1 110620Z 04004KT 27/13 A3027 RMK A01 T02660133  RH  046%=      5-min Rain = 0
KGU1 110621Z 05004KT 26/13 A3027 RMK A01 T02640133  RH  046%=      5-min Rain = 0
KGU1 110622Z 03003KT 26/13 A3027 RMK A01 T02620133  RH  047%=      5-min Rain = 0
KGU1 110623Z 04008KT 26/13 A3027 RMK A01 T02610133  RH  047%=      5-min Rain = 0
KGU1 110624Z 04005KT 26/13 A3027 RMK A01 T02600133  RH  047%=      5-min Rain = 0
KGU1 110625Z 04003KT 26/13 A3027 RMK A01 T02580134  RH  048%=      5-min Rain = 0
KGU1 110626Z 00004KT 26/13 A3027 RMK A01 T02580134  RH  048%=      5-min Rain = 0
KGU1 110627Z 35005KT 26/14 A3026 RMK A01 T02580135  RH  048%=      5-min Rain = 0
KGU1 110628Z 02004KT 26/14 A3026 RMK A01 T02570135  RH  049%=      5-min Rain = 0
KGU1 110629Z 03004KT 26/14 A3026 RMK A01 T02560135  RH  049%=      5-min Rain = 0
KGU1 110630Z 02004KT 26/14 A3027 RMK A01 T02560136  RH  049%=      5-min Rain = 0
KGU1 110631Z 02005KT 26/14 A3027 RMK A01 T02550136  RH  050%=      5-min Rain = 0
KGU1 110632Z 02005KT 26/14 A3027 RMK A01 T02550136  RH  050%=      5-min Rain = 0
KGU1 110633Z 03006KT 26/14 A3027 RMK A01 T02550136  RH  050%=      5-min Rain = 0
KGU1 110634Z 04006KT 26/14 A3027 RMK A01 T02550136  RH  050%=      5-min Rain = 0
KGU1 110635Z 05004KT 26/14 A3027 RMK A01 T02550136  RH  050%=      5-min Rain = 0
KGU1 110636Z 03004KT 26/14 A3027 RMK A01 T02550136  RH  050%=      5-min Rain = 0
KGU1 110637Z 02004KT 26/14 A3027 RMK A01 T02550137  RH  050%=      5-min Rain = 0
KGU1 110638Z 04004KT 26/14 A3027 RMK A01 T02570137  RH  050%=      5-min Rain = 0
KGU1 110639Z 03003KT 26/14 A3027 RMK A01 T02560137  RH  050%=      5-min Rain = 0
KGU1 110640Z 02004KT 26/14 A3027 RMK A01 T02550137  RH  050%=      5-min Rain = 0
KGU1 110641Z 02006KT 25/14 A3027 RMK A01 T02530138  RH  051%=      5-min Rain = 0
KGU1 110642Z 02006KT 25/14 A3027 RMK A01 T02520138  RH  051%=      5-min Rain = 0
KGU1 110643Z 02005KT 25/14 A3027 RMK A01 T02520138  RH  051%=      5-min Rain = 0
KGU1 110644Z 02005KT 25/14 A3027 RMK A01 T02510139  RH  052%=      5-min Rain = 0
KGU1 110645Z 02005KT 25/14 A3027 RMK A01 T02510139  RH  052%=      5-min Rain = 0
KGU1 110646Z 02004KT 25/14 A3027 RMK A01 T02500139  RH  052%=      5-min Rain = 0
KGU1 110647Z 02005KT 25/14 A3027 RMK A01 T02500139  RH  052%=      5-min Rain = 0
KGU1 110648Z 02005KT 25/14 A3027 RMK A01 T02490140  RH  053%=      5-min Rain = 0
KGU1 110649Z 02006KT 25/14 A3027 RMK A01 T02480140  RH  053%=      5-min Rain = 0
KGU1 110650Z 02008KT 25/14 A3027 RMK A01 T02480141  RH  054%=      5-min Rain = 0
KGU1 110651Z 02006KT 25/14 A3027 RMK A01 T02490141  RH  053%=      5-min Rain = 0
KGU1 110652Z 03005KT 25/14 A3027 RMK A01 T02500141  RH  053%=      5-min Rain = 0
KGU1 110653Z 03006KT 25/14 A3027 RMK A01 T02490141  RH  053%=      5-min Rain = 0
KGU1 110654Z 03006KT 25/14 A3027 RMK A01 T02490142  RH  054%=      5-min Rain = 0
KGU1 110655Z 03006KT 25/14 A3027 RMK A01 T02490143  RH  054%=      5-min Rain = 0
KGU1 110656Z 03006KT 25/14 A3027 RMK A01 T02500144  RH  054%=      5-min Rain = 0
KGU1 110657Z 01007KT 25/14 A3027 RMK A01 T02510143  RH  054%=      5-min Rain = 0
KGU1 110658Z 03007KT 25/14 A3027 RMK A01 T02520144  RH  054%=      5-min Rain = 0
KGU1 110659Z 05004KT 25/15 A3027 RMK A01 T02520145  RH  054%=      5-min Rain = 0
KGU1 110700Z 05003KT 25/15 A3027 RMK A01 T02520145  RH  054%=      5-min Rain = 0
KGU1 110701Z 05003KT 25/15 A3027 RMK A01 T02520145  RH  054%=      5-min Rain = 0
KGU1 110702Z 02002KT 25/15 A3027 RMK A01 T02520145  RH  053%=      5-min Rain = 0
KGU1 110703Z 02001KT 25/15 A3027 RMK A01 T02530145  RH  053%=      5-min Rain = 0
KGU1 110704Z 33002KT 25/15 A3027 RMK A01 T02520145  RH  054%=      5-min Rain = 0
KGU1 110705Z 34002KT 25/15 A3027 RMK A01 T02520145  RH  054%=      5-min Rain = 0
KGU1 110706Z 33003KT 25/15 A3027 RMK A01 T02510145  RH  054%=      5-min Rain = 0
KGU1 110707Z 35003KT 25/15 A3027 RMK A01 T02510145  RH  054%=      5-min Rain = 0
KGU1 110708Z 33004KT 25/14 A3027 RMK A01 T02510144  RH  054%=      5-min Rain = 0
KGU1 110709Z 34004KT 25/15 A3027 RMK A01 T02510145  RH  054%=      5-min Rain = 0
KGU1 110710Z 34004KT 25/15 A3027 RMK A01 T02520145  RH  054%=      5-min Rain = 0
KGU1 110711Z 01003KT 25/15 A3027 RMK A01 T02510145  RH  054%=      5-min Rain = 0
KGU1 110712Z 01003KT 25/15 A3027 RMK A01 T02520145  RH  054%=      5-min Rain = 0
KGU1 110713Z 34001KT 25/14 A3027 RMK A01 T02540144  RH  053%=      5-min Rain = 0
KGU1 110714Z 31001KT 26/15 A3027 RMK A01 T02560145  RH  052%=      5-min Rain = 0
KGU1 110715Z 36002KT 26/14 A3027 RMK A01 T02570144  RH  052%=      5-min Rain = 0
KGU1 110716Z 34004KT 26/15 A3027 RMK A01 T02570145  RH  052%=      5-min Rain = 0
KGU1 110717Z 35004KT 25/15 A3027 RMK A01 T02540145  RH  053%=      5-min Rain = 0
KGU1 110718Z 00003KT 25/15 A3027 RMK A01 T02510145  RH  054%=      5-min Rain = 0
KGU1 110719Z 01004KT 25/14 A3027 RMK A01 T02480144  RH  055%=      5-min Rain = 0
KGU1 110720Z 00005KT 25/15 A3026 RMK A01 T02470145  RH  055%=      5-min Rain = 0
KGU1 110721Z 36004KT 25/15 A3026 RMK A01 T02480145  RH  055%=      5-min Rain = 0
KGU1 110722Z 01005KT 25/14 A3026 RMK A01 T02470144  RH  055%=      5-min Rain = 0
KGU1 110723Z 01006KT 25/14 A3026 RMK A01 T02460144  RH  055%=      5-min Rain = 0
KGU1 110724Z 02006KT 25/14 A3026 RMK A01 T02460144  RH  055%=      5-min Rain = 0
KGU1 110725Z 01005KT 25/14 A3026 RMK A01 T02460144  RH  055%=      5-min Rain = 0
KGU1 110726Z 01005KT 25/14 A3026 RMK A01 T02480143  RH  055%=      5-min Rain = 0
KGU1 110727Z 01005KT 25/14 A3026 RMK A01 T02480144  RH  054%=      5-min Rain = 0
KGU1 110728Z 00004KT 25/14 A3026 RMK A01 T02480143  RH  054%=      5-min Rain = 0
KGU1 110729Z 00005KT 25/14 A3026 RMK A01 T02480143  RH  054%=      5-min Rain = 0
KGU1 110730Z 01005KT 25/14 A3026 RMK A01 T02470143  RH  055%=      5-min Rain = 0
KGU1 110731Z 01004KT 25/14 A3026 RMK A01 T02470142  RH  054%=      5-min Rain = 0
KGU1 110732Z 02004KT 25/14 A3026 RMK A01 T02480142  RH  054%=      5-min Rain = 0
KGU1 110733Z 03004KT 25/14 A3026 RMK A01 T02490142  RH  054%=      5-min Rain = 0
KGU1 110734Z 03002KT 25/14 A3026 RMK A01 T02490142  RH  054%=      5-min Rain = 0
KGU1 110735Z 03002KT 25/14 A3026 RMK A01 T02470142  RH  054%=      5-min Rain = 0
KGU1 110736Z 02002KT 25/14 A3026 RMK A01 T02450142  RH  055%=      5-min Rain = 0
KGU1 110737Z 02003KT 24/14 A3026 RMK A01 T02430142  RH  055%=      5-min Rain = 0
KGU1 110738Z 03003KT 24/14 A3026 RMK A01 T02430141  RH  055%=      5-min Rain = 0
KGU1 110739Z 03002KT 24/14 A3026 RMK A01 T02430141  RH  055%=      5-min Rain = 0
KGU1 110740Z 36001KT 24/14 A3026 RMK A01 T02420141  RH  055%=      5-min Rain = 0
KGU1 110741Z 29002KT 24/14 A3026 RMK A01 T02420141  RH  055%=      5-min Rain = 0
KGU1 110742Z 29002KT 24/14 A3026 RMK A01 T02420140  RH  055%=      5-min Rain = 0
KGU1 110743Z 27002KT 24/14 A3026 RMK A01 T02430139  RH  054%=      5-min Rain = 0
KGU1 110744Z 28003KT 25/14 A3026 RMK A01 T02450139  RH  054%=      5-min Rain = 0
KGU1 110745Z 28002KT 25/14 A3026 RMK A01 T02460140  RH  054%=      5-min Rain = 0
KGU1 110746Z 26001KT 25/14 A3026 RMK A01 T02460139  RH  054%=      5-min Rain = 0
KGU1 110747Z 21001KT 25/14 A3026 RMK A01 T02460139  RH  053%=      5-min Rain = 0
KGU1 110748Z 27001KT 25/14 A3026 RMK A01 T02470139  RH  053%=      5-min Rain = 0
KGU1 110749Z 30001KT 25/14 A3026 RMK A01 T02470139  RH  053%=      5-min Rain = 0
KGU1 110750Z 32001KT 25/14 A3026 RMK A01 T02480139  RH  053%=      5-min Rain = 0
KGU1 110751Z 32002KT 25/14 A3026 RMK A01 T02500138  RH  052%=      5-min Rain = 0
KGU1 110752Z 32002KT 25/14 A3026 RMK A01 T02510139  RH  052%=      5-min Rain = 0
KGU1 110753Z 36002KT 25/14 A3026 RMK A01 T02490139  RH  052%=      5-min Rain = 0
KGU1 110754Z 35001KT 25/14 A3026 RMK A01 T02470138  RH  053%=      5-min Rain = 0
KGU1 110755Z 35001KT 25/14 A3026 RMK A01 T02450139  RH  054%=      5-min Rain = 0
KGU1 110756Z 35002KT 24/14 A3026 RMK A01 T02440139  RH  054%=      5-min Rain = 0
KGU1 110757Z 35002KT 24/14 A3026 RMK A01 T02420139  RH  055%=      5-min Rain = 0
KGU1 110758Z 35001KT 24/14 A3026 RMK A01 T02400139  RH  056%=      5-min Rain = 0
KGU1 110759Z 30001KT 24/14 A3026 RMK A01 T02380139  RH  056%=      5-min Rain = 0
KGU1 110800Z 30002KT 24/14 A3026 RMK A01 T02380140  RH  057%=      5-min Rain = 0
KGU1 110801Z 30003KT 24/14 A3026 RMK A01 T02370140  RH  057%=      5-min Rain = 0
KGU1 110802Z 30003KT 24/14 A3026 RMK A01 T02380140  RH  056%=      5-min Rain = 0
KGU1 110803Z 30004KT 24/14 A3026 RMK A01 T02390140  RH  056%=      5-min Rain = 0
KGU1 110804Z 30004KT 24/14 A3026 RMK A01 T02390139  RH  056%=      5-min Rain = 0
KGU1 110805Z 28004KT 24/14 A3026 RMK A01 T02390139  RH  056%=      5-min Rain = 0
KGU1 110806Z 27004KT 24/14 A3026 RMK A01 T02380139  RH  056%=      5-min Rain = 0
KGU1 110807Z 28004KT 24/14 A3026 RMK A01 T02370139  RH  056%=      5-min Rain = 0
KGU1 110808Z 27003KT 24/14 A3026 RMK A01 T02370139  RH  056%=      5-min Rain = 0
KGU1 110809Z 28003KT 24/14 A3026 RMK A01 T02380138  RH  056%=      5-min Rain = 0
KGU1 110810Z 28004KT 24/14 A3026 RMK A01 T02380138  RH  056%=      5-min Rain = 0
KGU1 110811Z 27003KT 24/14 A3026 RMK A01 T02370138  RH  056%=      5-min Rain = 0
KGU1 110812Z 26003KT 24/14 A3026 RMK A01 T02370138  RH  056%=      5-min Rain = 0
KGU1 110813Z 27003KT 24/14 A3026 RMK A01 T02370138  RH  056%=      5-min Rain = 0
KGU1 110814Z 29003KT 24/14 A3026 RMK A01 T02370138  RH  056%=      5-min Rain = 0
KGU1 110815Z 29004KT 24/14 A3026 RMK A01 T02360137  RH  056%=      5-min Rain = 0
KGU1 110816Z 28004KT 24/14 A3026 RMK A01 T02350137  RH  056%=      5-min Rain = 0
KGU1 110817Z 28003KT 24/14 A3026 RMK A01 T02350137  RH  056%=      5-min Rain = 0
KGU1 110818Z 28004KT 24/14 A3026 RMK A01 T02360137  RH  056%=      5-min Rain = 0
KGU1 110819Z 29004KT 24/14 A3026 RMK A01 T02350137  RH  056%=      5-min Rain = 0
KGU1 110820Z 29006KT 23/14 A3026 RMK A01 T02330136  RH  057%=      5-min Rain = 0
KGU1 110821Z 29006KT 23/14 A3026 RMK A01 T02320136  RH  057%=      5-min Rain = 0
KGU1 110822Z 29007KT 23/14 A3026 RMK A01 T02300136  RH  058%=      5-min Rain = 0
KGU1 110823Z 29007KT 23/14 A3026 RMK A01 T02280136  RH  058%=      5-min Rain = 0
KGU1 110824Z 29008KT 23/14 A3026 RMK A01 T02280135  RH  058%=      5-min Rain = 0
KGU1 110825Z 29008KT 23/14 A3026 RMK A01 T02290135  RH  058%=      5-min Rain = 0
KGU1 110826Z 29008KT 23/14 A3026 RMK A01 T02290135  RH  058%=      5-min Rain = 0
KGU1 110827Z 29008KT 23/14 A3026 RMK A01 T02290135  RH  058%=      5-min Rain = 0
KGU1 110828Z 30008KT 23/14 A3026 RMK A01 T02300135  RH  057%=      5-min Rain = 0
KGU1 110829Z 29007KT 23/14 A3026 RMK A01 T02310135  RH  057%=      5-min Rain = 0
KGU1 110830Z 28006KT 23/14 A3026 RMK A01 T02310135  RH  057%=      5-min Rain = 0
KGU1 110831Z 28007KT 23/14 A3025 RMK A01 T02310136  RH  057%=      5-min Rain = 0
KGU1 110832Z 28008KT 23/14 A3025 RMK A01 T02310136  RH  057%=      5-min Rain = 0
KGU1 110833Z 28009KT 23/14 A3025 RMK A01 T02300136  RH  058%=      5-min Rain = 0
KGU1 110834Z 28008KT 23/14 A3025 RMK A01 T02300136  RH  058%=      5-min Rain = 0
KGU1 110835Z 27007KT 23/14 A3025 RMK A01 T02320136  RH  057%=      5-min Rain = 0
KGU1 110836Z 28007KT 23/14 A3025 RMK A01 T02310136  RH  057%=      5-min Rain = 0
KGU1 110837Z 29008KT 23/14 A3025 RMK A01 T02300137  RH  058%=      5-min Rain = 0
KGU1 110838Z 29008KT 23/14 A3025 RMK A01 T02290136  RH  058%=      5-min Rain = 0
KGU1 110839Z 28008KT 23/14 A3025 RMK A01 T02300136  RH  058%=      5-min Rain = 0
KGU1 110840Z 28008KT 23/14 A3025 RMK A01 T02310136  RH  058%=      5-min Rain = 0
KGU1 110841Z 28007KT 23/14 A3025 RMK A01 T02320136  RH  057%=      5-min Rain = 0
KGU1 110842Z 29007KT 23/14 A3025 RMK A01 T02340136  RH  056%=      5-min Rain = 0
KGU1 110843Z 29008KT 24/14 A3025 RMK A01 T02350136  RH  056%=      5-min Rain = 0
KGU1 110844Z 29009KT 24/14 A3025 RMK A01 T02350136  RH  056%=      5-min Rain = 0
KGU1 110845Z 28009KT 24/14 A3025 RMK A01 T02360136  RH  056%=      5-min Rain = 0
KGU1 110846Z 27008KT 24/14 A3025 RMK A01 T02360136  RH  056%=      5-min Rain = 0
KGU1 110847Z 26008KT 24/14 A3025 RMK A01 T02360136  RH  056%=      5-min Rain = 0
KGU1 110848Z 26008KT 24/14 A3025 RMK A01 T02360138  RH  056%=      5-min Rain = 0
KGU1 110849Z 25007KT 24/14 A3025 RMK A01 T02370138  RH  056%=      5-min Rain = 0
KGU1 110850Z 25007KT 24/14 A3025 RMK A01 T02390139  RH  056%=      5-min Rain = 0
KGU1 110851Z 25008KT 24/14 A3025 RMK A01 T02400139  RH  055%=      5-min Rain = 0
KGU1 110852Z 24009KT 24/14 A3025 RMK A01 T02410139  RH  055%=      5-min Rain = 0
KGU1 110853Z 24009KT 24/14 A3025 RMK A01 T02440138  RH  054%=      5-min Rain = 0
KGU1 110854Z 24008KT 25/14 A3025 RMK A01 T02460138  RH  053%=      5-min Rain = 0
KGU1 110855Z 23008KT 25/14 A3025 RMK A01 T02470139  RH  053%=      5-min Rain = 0
KGU1 110856Z 23008KT 25/14 A3025 RMK A01 T02470139  RH  053%=      5-min Rain = 0
KGU1 110857Z 24008KT 25/14 A3025 RMK A01 T02480140  RH  053%=      5-min Rain = 0
KGU1 110858Z 24008KT 25/14 A3025 RMK A01 T02490140  RH  053%=      5-min Rain = 0
KGU1 110859Z 24008KT 25/14 A3025 RMK A01 T02490140  RH  053%=      5-min Rain = 0
KGU1 110900Z 24007KT 25/14 A3025 RMK A01 T02490141  RH  053%=      5-min Rain = 0
KGU1 110901Z 25006KT 25/14 A3025 RMK A01 T02480140  RH  053%=      5-min Rain = 0
KGU1 110902Z 25007KT 25/14 A3025 RMK A01 T02470140  RH  054%=      5-min Rain = 0
KGU1 110903Z 25006KT 25/14 A3025 RMK A01 T02470140  RH  053%=      5-min Rain = 0
KGU1 110904Z 26006KT 25/14 A3025 RMK A01 T02470140  RH  054%=      5-min Rain = 0
KGU1 110905Z 26007KT 25/14 A3025 RMK A01 T02450140  RH  054%=      5-min Rain = 0
KGU1 110906Z 26007KT 25/14 A3025 RMK A01 T02450139  RH  054%=      5-min Rain = 0
KGU1 110907Z 26008KT 24/14 A3025 RMK A01 T02440139  RH  054%=      5-min Rain = 0
KGU1 110908Z 27008KT 24/14 A3025 RMK A01 T02430139  RH  054%=      5-min Rain = 0
KGU1 110909Z 27008KT 24/14 A3025 RMK A01 T02420139  RH  055%=      5-min Rain = 0
KGU1 110910Z 27008KT 24/14 A3025 RMK A01 T02410139  RH  055%=      5-min Rain = 0
KGU1 110911Z 27008KT 24/14 A3025 RMK A01 T02400139  RH  056%=      5-min Rain = 0
KGU1 110912Z 27009KT 24/14 A3025 RMK A01 T02400139  RH  055%=      5-min Rain = 0
KGU1 110913Z 27010KT 24/14 A3025 RMK A01 T02410139  RH  055%=      5-min Rain = 0
KGU1 110914Z 26009KT 24/14 A3025 RMK A01 T02420139  RH  055%=      5-min Rain = 0
KGU1 110915Z 26008KT 24/14 A3025 RMK A01 T02420139  RH  055%=      5-min Rain = 0
KGU1 110916Z 26008KT 24/14 A3025 RMK A01 T02420140  RH  055%=      5-min Rain = 0
KGU1 110917Z 25009KT 24/14 A3025 RMK A01 T02420140  RH  055%=      5-min Rain = 0
KGU1 110918Z 24008KT 24/14 A3025 RMK A01 T02440140  RH  055%=      5-min Rain = 0
KGU1 110919Z 25006KT 25/14 A3025 RMK A01 T02460139  RH  054%=      5-min Rain = 0
KGU1 110920Z 25006KT 25/14 A3025 RMK A01 T02460139  RH  054%=      5-min Rain = 0
KGU1 110921Z 26007KT 25/14 A3025 RMK A01 T02460139  RH  054%=      5-min Rain = 0
KGU1 110922Z 26009KT 25/14 A3025 RMK A01 T02460138  RH  053%=      5-min Rain = 0
KGU1 110923Z 26007KT 25/14 A3025 RMK A01 T02460138  RH  053%=      5-min Rain = 0
KGU1 110924Z 26008KT 25/14 A3025 RMK A01 T02460138  RH  053%=      5-min Rain = 0
KGU1 110925Z 25007KT 25/14 A3025 RMK A01 T02470139  RH  053%=      5-min Rain = 0
KGU1 110926Z 25007KT 25/14 A3025 RMK A01 T02470139  RH  053%=      5-min Rain = 0
KGU1 110927Z 25007KT 25/14 A3025 RMK A01 T02470139  RH  053%=      5-min Rain = 0
KGU1 110928Z 26007KT 25/14 A3025 RMK A01 T02480140  RH  053%=      5-min Rain = 0
KGU1 110929Z 26007KT 25/14 A3025 RMK A01 T02480140  RH  053%=      5-min Rain = 0
KGU1 110930Z 25008KT 25/14 A3025 RMK A01 T02480140  RH  053%=      5-min Rain = 0
KGU1 110931Z 26008KT 25/14 A3025 RMK A01 T02480139  RH  053%=      5-min Rain = 0
KGU1 110932Z 25008KT 25/14 A3025 RMK A01 T02470139  RH  053%=      5-min Rain = 0
KGU1 110933Z 25008KT 25/14 A3025 RMK A01 T02470139  RH  053%=      5-min Rain = 0
KGU1 110934Z 24007KT 25/14 A3025 RMK A01 T02470139  RH  053%=      5-min Rain = 0
KGU1 110935Z 25010KT 25/14 A3025 RMK A01 T02470139  RH  053%=      5-min Rain = 0
KGU1 110936Z 25010KT 25/14 A3025 RMK A01 T02480139  RH  053%=      5-min Rain = 0
KGU1 110937Z 25007KT 25/14 A3025 RMK A01 T02490139  RH  053%=      5-min Rain = 0
KGU1 110938Z 24008KT 25/14 A3025 RMK A01 T02490140  RH  053%=      5-min Rain = 0
KGU1 110939Z 25008KT 25/14 A3025 RMK A01 T02490140  RH  053%=      5-min Rain = 0
KGU1 110940Z 24010KT 25/14 A3025 RMK A01 T02490141  RH  053%=      5-min Rain = 0
KGU1 110941Z 26010KT 25/14 A3025 RMK A01 T02500141  RH  053%=      5-min Rain = 0
KGU1 110942Z 26008KT 25/14 A3025 RMK A01 T02510140  RH  052%=      5-min Rain = 0
KGU1 110943Z 24008KT 25/14 A3025 RMK A01 T02500140  RH  053%=      5-min Rain = 0
KGU1 110944Z 24009KT 25/14 A3025 RMK A01 T02500141  RH  053%=      5-min Rain = 0
KGU1 110945Z 25009KT 25/14 A3025 RMK A01 T02510142  RH  053%=      5-min Rain = 0
KGU1 110946Z 25008KT 25/14 A3025 RMK A01 T02510142  RH  053%=      5-min Rain = 0
KGU1 110947Z 22009KT 25/14 A3025 RMK A01 T02510143  RH  053%=      5-min Rain = 0
KGU1 110948Z 24009KT 25/14 A3025 RMK A01 T02500143  RH  054%=      5-min Rain = 0
KGU1 110949Z 24010KT 25/14 A3025 RMK A01 T02500143  RH  054%=      5-min Rain = 0
KGU1 110950Z 22010KT 25/14 A3025 RMK A01 T02500143  RH  054%=      5-min Rain = 0
KGU1 110951Z 23006KT 25/14 A3025 RMK A01 T02500143  RH  054%=      5-min Rain = 0
KGU1 110952Z 25008G13KT 25/14 A3025 RMK A01 T02490143  RH  054%=      5-min Rain = 0
KGU1 110953Z 25010KT 25/14 A3025 RMK A01 T02500143  RH  054%=      5-min Rain = 0
KGU1 110954Z 25008KT 25/14 A3025 RMK A01 T02510143  RH  053%=      5-min Rain = 0
KGU1 110955Z 24009KT 25/14 A3025 RMK A01 T02510142  RH  053%=      5-min Rain = 0
KGU1 110956Z 26009KT 25/14 A3025 RMK A01 T02510142  RH  053%=      5-min Rain = 0
KGU1 110957Z 26010KT 25/14 A3025 RMK A01 T02510142  RH  053%=      5-min Rain = 0
KGU1 110958Z 25007KT 25/14 A3025 RMK A01 T02500142  RH  053%=      5-min Rain = 0
KGU1 110959Z 24007KT 25/14 A3024 RMK A01 T02490142  RH  054%=      5-min Rain = 0
KGU1 111000Z 25008KT 25/14 A3024 RMK A01 T02480142  RH  054%=      5-min Rain = 0
KGU1 111001Z 26008KT 25/14 A3024 RMK A01 T02480143  RH  054%=      5-min Rain = 0
KGU1 111002Z 25008KT 25/14 A3024 RMK A01 T02470143  RH  054%=      5-min Rain = 0
KGU1 111003Z 25007KT 25/14 A3024 RMK A01 T02470142  RH  054%=      5-min Rain = 0
KGU1 111004Z 25007KT 25/14 A3025 RMK A01 T02470143  RH  055%=      5-min Rain = 0
KGU1 111005Z 26009KT 25/14 A3025 RMK A01 T02460142  RH  055%=      5-min Rain = 0
KGU1 111006Z 26008KT 25/14 A3025 RMK A01 T02460142  RH  054%=      5-min Rain = 0
KGU1 111007Z 26009KT 25/14 A3025 RMK A01 T02460142  RH  054%=      5-min Rain = 0
KGU1 111008Z 25008KT 25/14 A3025 RMK A01 T02460142  RH  055%=      5-min Rain = 0
KGU1 111009Z 24011KT 25/14 A3025 RMK A01 T02460142  RH  054%=      5-min Rain = 0
KGU1 111010Z 24009KT 25/14 A3025 RMK A01 T02470142  RH  054%=      5-min Rain = 0
KGU1 111011Z 25008KT 25/14 A3025 RMK A01 T02480142  RH  054%=      5-min Rain = 0
KGU1 111012Z 25010KT 25/14 A3025 RMK A01 T02480141  RH  054%=      5-min Rain = 0
KGU1 111013Z 25010KT 25/14 A3025 RMK A01 T02480141  RH  053%=      5-min Rain = 0
KGU1 111014Z 23010KT 25/14 A3025 RMK A01 T02490141  RH  053%=      5-min Rain = 0
KGU1 111015Z 24008KT 25/14 A3025 RMK A01 T02490141  RH  053%=      5-min Rain = 0
KGU1 111016Z 25010KT 25/14 A3025 RMK A01 T02490141  RH  054%=      5-min Rain = 0
KGU1 111017Z 25011KT 25/14 A3025 RMK A01 T02490142  RH  054%=      5-min Rain = 0
KGU1 111018Z 25010KT 25/14 A3025 RMK A01 T02490142  RH  054%=      5-min Rain = 0
KGU1 111019Z 25009KT 25/14 A3025 RMK A01 T02490142  RH  054%=      5-min Rain = 0
KGU1 111020Z 25010KT 25/14 A3025 RMK A01 T02480142  RH  054%=      5-min Rain = 0
KGU1 111021Z 25008KT 25/14 A3025 RMK A01 T02480142  RH  054%=      5-min Rain = 0
KGU1 111022Z 25008KT 25/14 A3025 RMK A01 T02480142  RH  054%=      5-min Rain = 0
KGU1 111023Z 26010KT 25/14 A3025 RMK A01 T02480142  RH  054%=      5-min Rain = 0
KGU1 111024Z 25009KT 25/14 A3025 RMK A01 T02480142  RH  054%=      5-min Rain = 0
KGU1 111025Z 25009KT 25/14 A3025 RMK A01 T02480142  RH  054%=      5-min Rain = 0
KGU1 111026Z 26008KT 25/14 A3025 RMK A01 T02480142  RH  054%=      5-min Rain = 0
KGU1 111027Z 25010KT 25/14 A3025 RMK A01 T02480142  RH  054%=      5-min Rain = 0
KGU1 111028Z 26009KT 25/14 A3025 RMK A01 T02470142  RH  054%=      5-min Rain = 0
KGU1 111029Z 24009KT 25/14 A3025 RMK A01 T02470142  RH  054%=      5-min Rain = 0
KGU1 111030Z 25008KT 25/14 A3025 RMK A01 T02470141  RH  054%=      5-min Rain = 0
KGU1 111031Z 26008KT 25/14 A3025 RMK A01 T02470141  RH  054%=      5-min Rain = 0
KGU1 111032Z 26009KT 25/14 A3025 RMK A01 T02460141  RH  054%=      5-min Rain = 0
KGU1 111033Z 25008KT 25/14 A3025 RMK A01 T02460141  RH  054%=      5-min Rain = 0
KGU1 111034Z 25007KT 25/14 A3025 RMK A01 T02460141  RH  054%=      5-min Rain = 0
KGU1 111035Z 25008KT 25/14 A3025 RMK A01 T02460141  RH  054%=      5-min Rain = 0
KGU1 111036Z 25007KT 25/14 A3025 RMK A01 T02460140  RH  054%=      5-min Rain = 0
KGU1 111037Z 25008KT 25/14 A3025 RMK A01 T02450139  RH  054%=      5-min Rain = 0
KGU1 111038Z 25008KT 25/14 A3025 RMK A01 T02450139  RH  054%=      5-min Rain = 0
KGU1 111039Z 25008KT 25/14 A3025 RMK A01 T02460138  RH  053%=      5-min Rain = 0
KGU1 111040Z 26007KT 25/14 A3025 RMK A01 T02460137  RH  053%=      5-min Rain = 0
KGU1 111041Z 26007KT 25/14 A3025 RMK A01 T02470136  RH  052%=      5-min Rain = 0
KGU1 111042Z 26007G14KT 25/14 A3025 RMK A01 T02470135  RH  052%=      5-min Rain = 0
KGU1 111043Z 26010KT 25/13 A3025 RMK A01 T02460134  RH  052%=      5-min Rain = 0
KGU1 111044Z 25009KT 25/13 A3025 RMK A01 T02480134  RH  051%=      5-min Rain = 0
KGU1 111045Z 25008KT 25/13 A3025 RMK A01 T02520134  RH  050%=      5-min Rain = 0
KGU1 111046Z 26007KT 25/13 A3025 RMK A01 T02530134  RH  050%=      5-min Rain = 0
KGU1 111047Z 27008KT 25/13 A3025 RMK A01 T02520133  RH  050%=      5-min Rain = 0
KGU1 111048Z 28009KT 25/13 A3025 RMK A01 T02480125  RH  048%=      5-min Rain = 0
KGU1 111049Z 27008KT 24/12 A3025 RMK A01 T02440122  RH  048%=      5-min Rain = 0
KGU1 111050Z 27010KT 24/12 A3025 RMK A01 T02420123  RH  049%=      5-min Rain = 0
KGU1 111051Z 27010KT 24/12 A3025 RMK A01 T02400120  RH  049%=      5-min Rain = 0
KGU1 111052Z 28009KT 24/12 A3025 RMK A01 T02380118  RH  049%=      5-min Rain = 0
KGU1 111053Z 27009KT 24/12 A3025 RMK A01 T02370118  RH  049%=      5-min Rain = 0
KGU1 111054Z 27009KT 24/12 A3025 RMK A01 T02370118  RH  049%=      5-min Rain = 0
KGU1 111055Z 27008KT 24/12 A3025 RMK A01 T02370117  RH  049%=      5-min Rain = 0
KGU1 111056Z 26008KT 24/12 A3025 RMK A01 T02380117  RH  048%=      5-min Rain = 0
KGU1 111057Z 26007KT 24/12 A3025 RMK A01 T02390117  RH  048%=      5-min Rain = 0
KGU1 111058Z 25008KT 24/12 A3025 RMK A01 T02390117  RH  048%=      5-min Rain = 0
KGU1 111059Z 27008KT 24/12 A3025 RMK A01 T02390115  RH  048%=      5-min Rain = 0
KGU1 111100Z 29010KT 24/12 A3025 RMK A01 T02390115  RH  047%=      5-min Rain = 0
KGU1 111101Z 27008KT 24/11 A3025 RMK A01 T02380114  RH  047%=      5-min Rain = 0
KGU1 111102Z 27008KT 24/11 A3025 RMK A01 T02360114  RH  048%=      5-min Rain = 0
KGU1 111103Z 28009KT 24/11 A3025 RMK A01 T02350112  RH  047%=      5-min Rain = 0
KGU1 111104Z 27008KT 24/11 A3025 RMK A01 T02350111  RH  047%=      5-min Rain = 0
KGU1 111105Z 27009KT 24/11 A3025 RMK A01 T02350113  RH  048%=      5-min Rain = 0
KGU1 111106Z 27010KT 24/11 A3025 RMK A01 T02350112  RH  048%=      5-min Rain = 0
KGU1 111107Z 27009KT 24/11 A3025 RMK A01 T02380108  RH  045%=      5-min Rain = 0
KGU1 111108Z 28009KT 24/11 A3025 RMK A01 T02380107  RH  045%=      5-min Rain = 0
KGU1 111109Z 28009KT 24/11 A3025 RMK A01 T02380106  RH  045%=      5-min Rain = 0
KGU1 111110Z 27007KT 24/10 A3025 RMK A01 T02380104  RH  044%=      5-min Rain = 0
KGU1 111111Z 27008KT 24/10 A3025 RMK A01 T02380102  RH  044%=      5-min Rain = 0
KGU1 111112Z 27008KT 24/10 A3025 RMK A01 T02360100  RH  043%=      5-min Rain = 0
KGU1 111113Z 28009KT 23/10 A3025 RMK A01 T02340099  RH  044%=      5-min Rain = 0
KGU1 111114Z 28008KT 23/10 A3025 RMK A01 T02340099  RH  044%=      5-min Rain = 0
KGU1 111115Z 28009KT 23/10 A3025 RMK A01 T02320099  RH  044%=      5-min Rain = 0
KGU1 111116Z 27008KT 23/10 A3025 RMK A01 T02310101  RH  045%=      5-min Rain = 0
KGU1 111117Z 28009KT 23/10 A3025 RMK A01 T02310102  RH  046%=      5-min Rain = 0
KGU1 111118Z 26008KT 23/10 A3025 RMK A01 T02310102  RH  045%=      5-min Rain = 0
KGU1 111119Z 25007KT 23/11 A3025 RMK A01 T02310106  RH  047%=      5-min Rain = 0
KGU1 111120Z 24007KT 23/11 A3025 RMK A01 T02340112  RH  048%=      5-min Rain = 0
KGU1 111121Z 24008KT 24/11 A3025 RMK A01 T02390114  RH  047%=      5-min Rain = 0
KGU1 111122Z 24007KT 25/11 A3025 RMK A01 T02450114  RH  046%=      5-min Rain = 0
KGU1 111123Z 24008KT 25/11 A3025 RMK A01 T02490114  RH  044%=      5-min Rain = 0
KGU1 111124Z 24009KT 25/11 A3025 RMK A01 T02520114  RH  044%=      5-min Rain = 0
KGU1 111125Z 24009KT 26/11 A3025 RMK A01 T02550114  RH  043%=      5-min Rain = 0
KGU1 111126Z 24008KT 26/11 A3025 RMK A01 T02560114  RH  043%=      5-min Rain = 0
KGU1 111127Z 24009KT 26/11 A3026 RMK A01 T02560114  RH  042%=      5-min Rain = 0
KGU1 111128Z 24008KT 26/11 A3026 RMK A01 T02570113  RH  042%=      5-min Rain = 0
KGU1 111129Z 24009KT 26/11 A3026 RMK A01 T02580113  RH  042%=      5-min Rain = 0
KGU1 111130Z 24009KT 26/11 A3026 RMK A01 T02580112  RH  041%=      5-min Rain = 0
KGU1 111131Z 25009KT 26/11 A3026 RMK A01 T02580112  RH  041%=      5-min Rain = 0
KGU1 111132Z 24009KT 26/11 A3026 RMK A01 T02590112  RH  041%=      5-min Rain = 0
KGU1 111133Z 24009KT 26/11 A3026 RMK A01 T02580112  RH  041%=      5-min Rain = 0
KGU1 111134Z 24009KT 26/11 A3026 RMK A01 T02590111  RH  041%=      5-min Rain = 0
KGU1 111135Z 24009KT 26/11 A3026 RMK A01 T02590111  RH  041%=      5-min Rain = 0
KGU1 111136Z 24008KT 26/11 A3026 RMK A01 T02600110  RH  041%=      5-min Rain = 0
KGU1 111137Z 24009KT 26/11 A3026 RMK A01 T02600110  RH  040%=      5-min Rain = 0
KGU1 111138Z 24009KT 26/11 A3026 RMK A01 T02590110  RH  040%=      5-min Rain = 0
KGU1 111139Z 24008KT 26/11 A3026 RMK A01 T02580110  RH  041%=      5-min Rain = 0
KGU1 111140Z 25008KT 26/11 A3026 RMK A01 T02570111  RH  041%=      5-min Rain = 0
KGU1 111141Z 25006KT 26/11 A3026 RMK A01 T02550111  RH  042%=      5-min Rain = 0
KGU1 111142Z 26006KT 25/11 A3026 RMK A01 T02530111  RH  042%=      5-min Rain = 0
KGU1 111143Z 26006KT 25/11 A3026 RMK A01 T02510111  RH  043%=      5-min Rain = 0
KGU1 111144Z 26007KT 25/11 A3026 RMK A01 T02470111  RH  044%=      5-min Rain = 0
KGU1 111145Z 26006KT 24/11 A3026 RMK A01 T02430110  RH  045%=      5-min Rain = 0
KGU1 111146Z 26006KT 24/11 A3026 RMK A01 T02380109  RH  046%=      5-min Rain = 0
KGU1 111147Z 28007KT 23/10 A3026 RMK A01 T02340102  RH  045%=      5-min Rain = 0
KGU1 111148Z 29009KT 23/08 A3026 RMK A01 T02320084  RH  040%=      5-min Rain = 0
KGU1 111149Z 28008KT 23/07 A3026 RMK A01 T02310068  RH  036%=      5-min Rain = 0
KGU1 111150Z 28008KT 23/05 A3025 RMK A01 T02330053  RH  032%=      5-min Rain = 0
KGU1 111151Z 28008KT 23/05 A3025 RMK A01 T02340046  RH  030%=      5-min Rain = 0
KGU1 111152Z 27008KT 24/05 A3025 RMK A01 T02350045  RH  030%=      5-min Rain = 0
KGU1 111153Z 27009KT 24/05 A3025 RMK A01 T02350049  RH  031%=      5-min Rain = 0
KGU1 111154Z 27008KT 23/04 A3025 RMK A01 T02340044  RH  030%=      5-min Rain = 0
KGU1 111155Z 26007KT 23/06 A3025 RMK A01 T02340063  RH  034%=      5-min Rain = 0
KGU1 111156Z 25007KT 23/09 A3025 RMK A01 T02340088  RH  040%=      5-min Rain = 0
KGU1 111157Z 24008KT 24/10 A3025 RMK A01 T02350103  RH  045%=      5-min Rain = 0
KGU1 111158Z 23006KT 24/11 A3026 RMK A01 T02410111  RH  046%=      5-min Rain = 0
KGU1 111159Z 22007KT 25/12 A3026 RMK A01 T02450118  RH  047%=      5-min Rain = 0
KGU1 111200Z 23009KT 25/13 A3026 RMK A01 T02450125  RH  049%=      5-min Rain = 0
KGU1 111201Z 23008KT 24/13 A3026 RMK A01 T02440131  RH  051%=      5-min Rain = 0
KGU1 111202Z 23009KT 24/13 A3025 RMK A01 T02430134  RH  052%=      5-min Rain = 0
KGU1 111203Z 24012KT 24/13 A3025 RMK A01 T02430134  RH  053%=      5-min Rain = 0
KGU1 111204Z 24011KT 25/13 A3025 RMK A01 T02450134  RH  052%=      5-min Rain = 0
KGU1 111205Z 24010KT 25/13 A3025 RMK A01 T02450134  RH  052%=      5-min Rain = 0
KGU1 111206Z 24006KT 25/13 A3026 RMK A01 T02450133  RH  051%=      5-min Rain = 0
KGU1 111207Z 22004KT 24/13 A3026 RMK A01 T02440133  RH  052%=      5-min Rain = 0
KGU1 111208Z 23003KT 24/13 A3026 RMK A01 T02430133  RH  052%=      5-min Rain = 0
KGU1 111209Z 24003KT 24/13 A3026 RMK A01 T02410133  RH  053%=      5-min Rain = 0
KGU1 111210Z 24006KT 24/13 A3026 RMK A01 T02400134  RH  053%=      5-min Rain = 0
KGU1 111211Z 24006KT 24/14 A3026 RMK A01 T02390135  RH  054%=      5-min Rain = 0
KGU1 111212Z 24008KT 24/14 A3026 RMK A01 T02380135  RH  054%=      5-min Rain = 0
KGU1 111213Z 24009KT 24/14 A3026 RMK A01 T02390135  RH  054%=      5-min Rain = 0
KGU1 111214Z 25011KT 24/13 A3025 RMK A01 T02400129  RH  052%=      5-min Rain = 0
KGU1 111215Z 27010KT 25/11 A3025 RMK A01 T02450113  RH  045%=      5-min Rain = 0
KGU1 111216Z 27010KT 25/11 A3025 RMK A01 T02500105  RH  042%=      5-min Rain = 0
KGU1 111217Z 27010KT 25/11 A3025 RMK A01 T02510113  RH  044%=      5-min Rain = 0
KGU1 111218Z 26008KT 25/12 A3025 RMK A01 T02500116  RH  045%=      5-min Rain = 0
KGU1 111219Z 28009KT 25/11 A3025 RMK A01 T02490112  RH  044%=      5-min Rain = 0
KGU1 111220Z 28008KT 25/11 A3025 RMK A01 T02490105  RH  042%=      5-min Rain = 0
KGU1 111221Z 28006KT 25/10 A3025 RMK A01 T02490102  RH  041%=      5-min Rain = 0
KGU1 111222Z 24002KT 25/11 A3025 RMK A01 T02490106  RH  042%=      5-min Rain = 0
KGU1 111223Z 24002KT 25/11 A3025 RMK A01 T02480109  RH  043%=      5-min Rain = 0
KGU1 111224Z 27003KT 25/10 A3025 RMK A01 T02480099  RH  040%=      5-min Rain = 0
KGU1 111225Z 27006KT 25/08 A3025 RMK A01 T02490078  RH  035%=      5-min Rain = 0
KGU1 111226Z 22005KT 25/07 A3025 RMK A01 T02520072  RH  032%=      5-min Rain = 0
KGU1 111227Z 22005KT 25/08 A3025 RMK A01 T02540080  RH  034%=      5-min Rain = 0
KGU1 111228Z 22005KT 26/09 A3025 RMK A01 T02560091  RH  036%=      5-min Rain = 0
KGU1 111229Z 20008KT 26/10 A3026 RMK A01 T02560095  RH  037%=      5-min Rain = 0
KGU1 111230Z 22007KT 26/10 A3026 RMK A01 T02560096  RH  038%=      5-min Rain = 0
KGU1 111231Z 22008KT 26/09 A3026 RMK A01 T02580086  RH  035%=      5-min Rain = 0
KGU1 111232Z 22006KT 26/09 A3026 RMK A01 T02600088  RH  035%=      5-min Rain = 0
KGU1 111233Z 24005KT 26/11 A3026 RMK A01 T02610106  RH  039%=      5-min Rain = 0
KGU1 111234Z 28006KT 26/10 A3026 RMK A01 T02600096  RH  037%=      5-min Rain = 0
KGU1 111235Z 26006KT 26/07 A3026 RMK A01 T02620067  RH  029%=      5-min Rain = 0
KGU1 111236Z 27006KT 27/05 A3026 RMK A01 T02660047  RH  025%=      5-min Rain = 0
KGU1 111237Z 28007KT 27/03 A3026 RMK A01 T02690032  RH  022%=      5-min Rain = 0
KGU1 111238Z 28006KT 27/03 A3026 RMK A01 T02710030  RH  022%=      5-min Rain = 0
KGU1 111239Z 29007KT 27/01 A3026 RMK A01 T02720011  RH  019%=      5-min Rain = 0
KGU1 111240Z 28007KT 27/03 A3026 RMK A01 T02740025  RH  020%=      5-min Rain = 0
KGU1 111241Z 28008KT 27/01 A3026 RMK A01 T02720013  RH  019%=      5-min Rain = 0
KGU1 111242Z 28007KT 27/02 A3026 RMK A01 T02720016  RH  019%=      5-min Rain = 0
KGU1 111243Z 28009KT 27/01 A3026 RMK A01 T02710007  RH  018%=      5-min Rain = 0
KGU1 111244Z 27008KT 27/00 A3026 RMK A01 T02720001  RH  017%=      5-min Rain = 0
KGU1 111245Z 28008KT 27/M00 A3026 RMK A01 T02721002  RH  017%=      5-min Rain = 0
KGU1 111246Z 27008KT 27/M00 A3026 RMK A01 T02731004  RH  017%=      5-min Rain = 0
KGU1 111247Z 26007KT 27/M01 A3026 RMK A01 T02731007  RH  016%=      5-min Rain = 0
KGU1 111248Z 23006KT 27/00 A3026 RMK A01 T02730002  RH  017%=      5-min Rain = 0
KGU1 111249Z 22006KT 27/02 A3026 RMK A01 T02710018  RH  020%=      5-min Rain = 0
KGU1 111250Z 21008KT 27/08 A3026 RMK A01 T02700080  RH  031%=      5-min Rain = 0
KGU1 111251Z 22008KT 27/10 A3027 RMK A01 T02680098  RH  035%=      5-min Rain = 0
KGU1 111252Z 23005KT 27/10 A3027 RMK A01 T02670100  RH  036%=      5-min Rain = 0
KGU1 111253Z 23006KT 27/10 A3027 RMK A01 T02670095  RH  035%=      5-min Rain = 0
KGU1 111254Z 21007KT 27/10 A3027 RMK A01 T02680102  RH  036%=      5-min Rain = 0
KGU1 111255Z 21007KT 27/11 A3027 RMK A01 T02670114  RH  040%=      5-min Rain = 0
KGU1 111256Z 21008KT 26/12 A3027 RMK A01 T02640121  RH  043%=      5-min Rain = 0
KGU1 111257Z 21011KT 26/13 A3027 RMK A01 T02620127  RH  045%=      5-min Rain = 0
KGU1 111258Z 22009G14KT 26/13 A3027 RMK A01 T02600129  RH  046%=      5-min Rain = 0
KGU1 111259Z 23012KT 26/13 A3027 RMK A01 T02600125  RH  045%=      5-min Rain = 0
KGU1 111300Z 24010KT 26/12 A3027 RMK A01 T02620118  RH  042%=      5-min Rain = 0
KGU1 111301Z 25009KT 26/11 A3027 RMK A01 T02640114  RH  041%=      5-min Rain = 0
KGU1 111302Z 25009KT 27/11 A3027 RMK A01 T02670105  RH  038%=      5-min Rain = 0
KGU1 111303Z 26007KT 27/10 A3027 RMK A01 T02690104  RH  037%=      5-min Rain = 0
KGU1 111304Z 27007KT 27/10 A3027 RMK A01 T02710101  RH  036%=      5-min Rain = 0
KGU1 111305Z 27005KT 27/10 A3027 RMK A01 T02720098  RH  035%=      5-min Rain = 0
KGU1 111306Z 18006KT 27/11 A3028 RMK A01 T02730108  RH  037%=      5-min Rain = 0
KGU1 111307Z 20006KT 27/13 A3028 RMK A01 T02690126  RH  043%=      5-min Rain = 0
KGU1 111308Z 21009KT 27/13 A3028 RMK A01 T02650128  RH  044%=      5-min Rain = 0
KGU1 111309Z 22007G13KT 26/13 A3028 RMK A01 T02640126  RH  044%=      5-min Rain = 0
KGU1 111310Z 22009KT 27/09 A3028 RMK A01 T02670091  RH  034%=      5-min Rain = 0
KGU1 111311Z 27007KT 28/08 A3027 RMK A01 T02750075  RH  029%=      5-min Rain = 0
KGU1 111312Z 29006KT 28/08 A3027 RMK A01 T02810075  RH  028%=      5-min Rain = 0
KGU1 111313Z 30008KT 28/08 A3027 RMK A01 T02830075  RH  028%=      5-min Rain = 0
KGU1 111314Z 29009KT 28/10 A3027 RMK A01 T02820103  RH  034%=      5-min Rain = 0
KGU1 111315Z 30009KT 28/10 A3027 RMK A01 T02800096  RH  033%=      5-min Rain = 0
KGU1 111316Z 30009KT 28/09 A3027 RMK A01 T02800088  RH  031%=      5-min Rain = 0
KGU1 111317Z 31010KT 28/08 A3027 RMK A01 T02820077  RH  028%=      5-min Rain = 0
KGU1 111318Z 31012KT 28/08 A3027 RMK A01 T02840075  RH  028%=      5-min Rain = 0
KGU1 111319Z 31010KT 29/08 A3027 RMK A01 T02850077  RH  028%=      5-min Rain = 0
KGU1 111320Z 30010KT 29/08 A3027 RMK A01 T02860076  RH  027%=      5-min Rain = 0
KGU1 111321Z 29009KT 29/08 A3028 RMK A01 T02860081  RH  028%=      5-min Rain = 0
KGU1 111322Z 29009KT 29/09 A3028 RMK A01 T02860087  RH  029%=      5-min Rain = 0
KGU1 111323Z 29009KT 29/08 A3028 RMK A01 T02860082  RH  029%=      5-min Rain = 0
KGU1 111324Z 30009KT 29/08 A3028 RMK A01 T02860075  RH  027%=      5-min Rain = 0
KGU1 111325Z 31008KT 29/07 A3028 RMK A01 T02870065  RH  025%=      5-min Rain = 0
KGU1 111326Z 30006KT 29/04 A3028 RMK A01 T02880044  RH  022%=      5-min Rain = 0
KGU1 111327Z 30007KT 29/04 A3028 RMK A01 T02920036  RH  020%=      5-min Rain = 0
KGU1 111328Z 30005KT 29/04 A3028 RMK A01 T02940041  RH  020%=      5-min Rain = 0
KGU1 111329Z 30003KT 30/05 A3028 RMK A01 T02960046  RH  021%=      5-min Rain = 0
KGU1 111330Z 28002KT 30/05 A3028 RMK A01 T02980048  RH  021%=      5-min Rain = 0
KGU1 111331Z 30003KT 30/05 A3028 RMK A01 T03000045  RH  020%=      5-min Rain = 0
KGU1 111332Z 24003KT 30/04 A3028 RMK A01 T03010037  RH  019%=      5-min Rain = 0
KGU1 111333Z 27004KT 30/01 A3028 RMK A01 T03030009  RH  015%=      5-min Rain = 0
KGU1 111334Z 28002KT 31/M00 A3028 RMK A01 T03061004  RH  014%=      5-min Rain = 0
KGU1 111335Z 18002KT 31/01 A3028 RMK A01 T03100013  RH  015%=      5-min Rain = 0
KGU1 111336Z 23002KT 31/04 A3028 RMK A01 T03100039  RH  018%=      5-min Rain = 0
KGU1 111337Z 26005KT 31/03 A3028 RMK A01 T03100028  RH  017%=      5-min Rain = 0
KGU1 111338Z 29007KT 31/02 A3028 RMK A01 T03090021  RH  016%=      5-min Rain = 0
KGU1 111339Z 30006KT 31/02 A3028 RMK A01 T03060019  RH  016%=      5-min Rain = 0
KGU1 111340Z 29006KT 30/01 A3028 RMK A01 T03040014  RH  016%=      5-min Rain = 0
KGU1 111341Z 29005KT 31/01 A3028 RMK A01 T03060011  RH  015%=      5-min Rain = 0
KGU1 111342Z 25003KT 31/02 A3028 RMK A01 T03080019  RH  016%=      5-min Rain = 0
KGU1 111343Z 20005KT 31/06 A3028 RMK A01 T03090063  RH  022%=      5-min Rain = 0
KGU1 111344Z 20006KT 30/09 A3028 RMK A01 T03040088  RH  027%=      5-min Rain = 0
KGU1 111345Z 20006KT 30/10 A3028 RMK A01 T02980098  RH  030%=      5-min Rain = 0
KGU1 111346Z 21005KT 30/10 A3029 RMK A01 T02950095  RH  030%=      5-min Rain = 0
KGU1 111347Z 21005KT 30/09 A3029 RMK A01 T02950093  RH  029%=      5-min Rain = 0
KGU1 111348Z 21006KT 30/09 A3029 RMK A01 T02950094  RH  030%=      5-min Rain = 0
KGU1 111349Z 22005KT 30/10 A3029 RMK A01 T02950096  RH  030%=      5-min Rain = 0
KGU1 111350Z 24005KT 30/09 A3029 RMK A01 T02950092  RH  029%=      5-min Rain = 0
KGU1 111351Z 25005KT 30/08 A3029 RMK A01 T02960083  RH  027%=      5-min Rain = 0
KGU1 111352Z 28004KT 30/07 A3029 RMK A01 T02980066  RH  024%=      5-min Rain = 0
KGU1 111353Z 28005KT 30/06 A3029 RMK A01 T03010063  RH  023%=      5-min Rain = 0
KGU1 111354Z 27005KT 31/07 A3029 RMK A01 T03050065  RH  023%=      5-min Rain = 0
KGU1 111355Z 26004KT 31/08 A3029 RMK A01 T03060079  RH  025%=      5-min Rain = 0
KGU1 111356Z 24003KT 31/08 A3029 RMK A01 T03070083  RH  026%=      5-min Rain = 0
KGU1 111357Z 23003KT 31/08 A3029 RMK A01 T03070083  RH  026%=      5-min Rain = 0
KGU1 111358Z 22002KT 31/08 A3029 RMK A01 T03080079  RH  025%=      5-min Rain = 0
KGU1 111359Z 22003KT 31/08 A3029 RMK A01 T03090076  RH  024%=      5-min Rain = 0
KGU1 111400Z 23002KT 31/07 A3029 RMK A01 T03110073  RH  023%=      5-min Rain = 0
KGU1 111401Z 25002KT 31/06 A3029 RMK A01 T03130063  RH  021%=      5-min Rain = 0
KGU1 111402Z 23004KT 32/05 A3029 RMK A01 T03150054  RH  020%=      5-min Rain = 0
KGU1 111403Z 23003KT 32/05 A3029 RMK A01 T03160048  RH  019%=      5-min Rain = 0
KGU1 111404Z 23002KT 32/04 A3029 RMK A01 T03170036  RH  017%=      5-min Rain = 0
KGU1 111405Z 25003KT 32/03 A3029 RMK A01 T03180033  RH  017%=      5-min Rain = 0
KGU1 111406Z 22004KT 32/05 A3029 RMK A01 T03190054  RH  020%=      5-min Rain = 0
KGU1 111407Z 20003KT 32/08 A3029 RMK A01 T03170076  RH  023%=      5-min Rain = 0
KGU1 111408Z 20004KT 32/05 A3029 RMK A01 T03150052  RH  020%=      5-min Rain = 0
KGU1 111409Z 21005KT 32/07 A3029 RMK A01 T03150069  RH  022%=      5-min Rain = 0
KGU1 111410Z 21004KT 31/08 A3029 RMK A01 T03120083  RH  025%=      5-min Rain = 0
KGU1 111411Z 22003KT 31/08 A3029 RMK A01 T03110075  RH  024%=      5-min Rain = 0
KGU1 111412Z 24004KT 31/07 A3029 RMK A01 T03110073  RH  023%=      5-min Rain = 0
KGU1 111413Z 23004KT 31/07 A3029 RMK A01 T03130074  RH  023%=      5-min Rain = 0
KGU1 111414Z 22004KT 31/07 A3029 RMK A01 T03130073  RH  023%=      5-min Rain = 0
KGU1 111415Z 23004KT 32/06 A3029 RMK A01 T03150060  RH  021%=      5-min Rain = 0
KGU1 111416Z 24003KT 32/02 A3029 RMK A01 T03170020  RH  015%=      5-min Rain = 0
KGU1 111417Z 22003KT 32/M01 A3029 RMK A01 T03201005  RH  013%=      5-min Rain = 0
KGU1 111418Z 21004KT 32/04 A3029 RMK A01 T03230038  RH  017%=      5-min Rain = 0
KGU1 111419Z 20004KT 32/07 A3029 RMK A01 T03220068  RH  021%=      5-min Rain = 0
KGU1 111420Z 20004KT 32/07 A3029 RMK A01 T03190065  RH  021%=      5-min Rain = 0
KGU1 111421Z 20004KT 32/07 A3029 RMK A01 T03180067  RH  021%=      5-min Rain = 0
KGU1 111422Z 21002KT 32/07 A3029 RMK A01 T03190071  RH  022%=      5-min Rain = 0
KGU1 111423Z 21003KT 32/08 A3029 RMK A01 T03210077  RH  023%=      5-min Rain = 0
KGU1 111424Z 21003KT 32/08 A3029 RMK A01 T03210076  RH  022%=      5-min Rain = 0
KGU1 111425Z 22003KT 32/07 A3029 RMK A01 T03220066  RH  021%=      5-min Rain = 0
KGU1 111426Z 23004KT 32/05 A3029 RMK A01 T03230052  RH  019%=      5-min Rain = 0
KGU1 111427Z 21003KT 32/04 A3029 RMK A01 T03230037  RH  017%=      5-min Rain = 0
KGU1 111428Z 22005KT 32/01 A3029 RMK A01 T03240014  RH  014%=      5-min Rain = 0
KGU1 111429Z 21004KT 32/M01 A3029 RMK A01 T03241009  RH  012%=      5-min Rain = 0
KGU1 111430Z 19003KT 33/04 A3029 RMK A01 T03250044  RH  018%=      5-min Rain = 0
KGU1 111431Z 18005KT 32/08 A3029 RMK A01 T03230078  RH  022%=      5-min Rain = 0
KGU1 111432Z 20004KT 32/07 A3029 RMK A01 T03210069  RH  021%=      5-min Rain = 0
KGU1 111433Z 21004KT 32/06 A3029 RMK A01 T03220059  RH  020%=      5-min Rain = 0
KGU1 111434Z 21004KT 32/05 A3029 RMK A01 T03230049  RH  018%=      5-min Rain = 0
KGU1 111435Z 22004KT 32/06 A3029 RMK A01 T03240062  RH  020%=      5-min Rain = 0
KGU1 111436Z 22003KT 32/04 A3029 RMK A01 T03230035  RH  017%=      5-min Rain = 0
KGU1 111437Z 21002KT 32/02 A3029 RMK A01 T03240022  RH  015%=      5-min Rain = 0
KGU1 111438Z 19003KT 33/04 A3029 RMK A01 T03250039  RH  017%=      5-min Rain = 0
KGU1 111439Z 18004KT 33/05 A3029 RMK A01 T03250048  RH  018%=      5-min Rain = 0
KGU1 111440Z 18005KT 32/06 A3029 RMK A01 T03240064  RH  020%=      5-min Rain = 0
KGU1 111441Z 17006KT 32/10 A3029 RMK A01 T03220097  RH  026%=      5-min Rain = 0
KGU1 111442Z 20004KT 32/09 A3029 RMK A01 T03200092  RH  025%=      5-min Rain = 0
KGU1 111443Z 20003KT 32/09 A3029 RMK A01 T03190086  RH  024%=      5-min Rain = 0
KGU1 111444Z 20003KT 32/08 A3029 RMK A01 T03190077  RH  023%=      5-min Rain = 0
KGU1 111445Z 21004KT 32/07 A3029 RMK A01 T03200071  RH  022%=      5-min Rain = 0
KGU1 111446Z 20004KT 32/05 A3029 RMK A01 T03210054  RH  019%=      5-min Rain = 0
KGU1 111447Z 19006KT 32/08 A3029 RMK A01 T03210081  RH  023%=      5-min Rain = 0
KGU1 111448Z 19007KT 32/09 A3029 RMK A01 T03180092  RH  026%=      5-min Rain = 0
KGU1 111449Z 20006KT 32/09 A3029 RMK A01 T03160094  RH  026%=      5-min Rain = 0
KGU1 111450Z 20006KT 32/09 A3029 RMK A01 T03160094  RH  026%=      5-min Rain = 0
KGU1 111451Z 19007KT 31/10 A3029 RMK A01 T03140098  RH  027%=      5-min Rain = 0
KGU1 111452Z 20008KT 31/11 A3029 RMK A01 T03110105  RH  029%=      5-min Rain = 0
KGU1 111453Z 19008KT 31/11 A303 RMK A01 T03090112  RH  031%=      5-min Rain = 0
KGU1 111454Z 19007KT 31/11 A303 RMK A01 T03080109  RH  030%=      5-min Rain = 0
KGU1 111455Z 19009KT 31/11 A303 RMK A01 T03080110  RH  031%=      5-min Rain = 0
KGU1 111456Z 19009KT 31/11 A303 RMK A01 T03060112  RH  031%=      5-min Rain = 0
KGU1 111457Z 20008KT 31/11 A303 RMK A01 T03050112  RH  032%=      5-min Rain = 0
KGU1 111458Z 19010KT 31/11 A303 RMK A01 T03050113  RH  032%=      5-min Rain = 0
KGU1 111459Z 19011KT 30/11 A303 RMK A01 T03030114  RH  032%=      5-min Rain = 0
KGU1 111500Z 21010KT 30/11 A303 RMK A01 T03010113  RH  032%=      5-min Rain = 0
KGU1 111501Z 21007KT 30/11 A303 RMK A01 T03030111  RH  032%=      5-min Rain = 0
KGU1 111502Z 21008KT 30/11 A303 RMK A01 T03040105  RH  030%=      5-min Rain = 0
KGU1 111503Z 19009KT 31/10 A303 RMK A01 T03050099  RH  029%=      5-min Rain = 0
KGU1 111504Z 19009KT 31/10 A303 RMK A01 T03050102  RH  029%=      5-min Rain = 0
KGU1 111505Z 20011KT 31/11 A303 RMK A01 T03050111  RH  031%=      5-min Rain = 0
KGU1 111506Z 21007KT 30/11 A303 RMK A01 T03030113  RH  032%=      5-min Rain = 0
KGU1 111507Z 21007KT 31/11 A303 RMK A01 T03050113  RH  032%=      5-min Rain = 0
KGU1 111508Z 21009KT 31/11 A303 RMK A01 T03050109  RH  031%=      5-min Rain = 0
KGU1 111509Z 21009KT 31/10 A303 RMK A01 T03050104  RH  030%=      5-min Rain = 0
KGU1 111510Z 21008KT 30/11 A303 RMK A01 T03040111  RH  031%=      5-min Rain = 0
KGU1 111511Z 21009KT 31/11 A303 RMK A01 T03060111  RH  031%=      5-min Rain = 0
KGU1 111512Z 20009KT 31/11 A303 RMK A01 T03060108  RH  030%=      5-min Rain = 0
KGU1 111513Z 21007KT 31/12 A303 RMK A01 T03070115  RH  032%=      5-min Rain = 0
KGU1 111514Z 20008KT 31/12 A303 RMK A01 T03070115  RH  032%=      5-min Rain = 0
KGU1 111515Z 20007KT 31/12 A303 RMK A01 T03060117  RH  033%=      5-min Rain = 0
KGU1 111516Z 20006KT 31/11 A303 RMK A01 T03070112  RH  031%=      5-min Rain = 0
KGU1 111517Z 21007KT 31/11 A303 RMK A01 T03080109  RH  030%=      5-min Rain = 0
KGU1 111518Z 20007KT 31/11 A303 RMK A01 T03080105  RH  030%=      5-min Rain = 0
KGU1 111519Z 21005KT 31/10 A303 RMK A01 T03080098  RH  028%=      5-min Rain = 0
KGU1 111520Z 21006KT 31/11 A303 RMK A01 T03110112  RH  030%=      5-min Rain = 0
KGU1 111521Z 21007KT 31/12 A303 RMK A01 T03120118  RH  032%=      5-min Rain = 0
KGU1 111522Z 21007KT 31/12 A303 RMK A01 T03090120  RH  033%=      5-min Rain = 0
KGU1 111523Z 21005KT 31/13 A303 RMK A01 T03080126  RH  034%=      5-min Rain = 0
KGU1 111524Z 22007KT 31/12 A303 RMK A01 T03110121  RH  033%=      5-min Rain = 0
KGU1 111525Z 20006KT 31/12 A303 RMK A01 T03100118  RH  032%=      5-min Rain = 0
KGU1 111526Z 20006KT 31/12 A303 RMK A01 T03120116  RH  031%=      5-min Rain = 0
KGU1 111527Z 21005KT 31/12 A303 RMK A01 T03130120  RH  032%=      5-min Rain = 0
KGU1 111528Z 23005KT 31/12 A303 RMK A01 T03120115  RH  031%=      5-min Rain = 0
KGU1 111529Z 20005KT 31/11 A303 RMK A01 T03130113  RH  030%=      5-min Rain = 0
KGU1 111530Z 21006KT 32/12 A303 RMK A01 T03160118  RH  031%=      5-min Rain = 0
KGU1 111531Z 20006KT 32/12 A303 RMK A01 T03160124  RH  032%=      5-min Rain = 0
KGU1 111532Z 21006KT 32/12 A303 RMK A01 T03150119  RH  031%=      5-min Rain = 0
KGU1 111533Z 22006KT 32/11 A303 RMK A01 T03150110  RH  029%=      5-min Rain = 0
KGU1 111534Z 22004KT 32/10 A303 RMK A01 T03150101  RH  028%=      5-min Rain = 0
KGU1 111535Z 21005KT 32/12 A303 RMK A01 T03160118  RH  031%=      5-min Rain = 0
KGU1 111536Z 22006KT 31/11 A303 RMK A01 T03140111  RH  030%=      5-min Rain = 0
KGU1 111537Z 21005KT 31/10 A303 RMK A01 T03130104  RH  029%=      5-min Rain = 0
KGU1 111538Z 21005KT 32/11 A303 RMK A01 T03150105  RH  028%=      5-min Rain = 0
KGU1 111539Z 20005KT 32/10 A303 RMK A01 T03150099  RH  027%=      5-min Rain = 0
KGU1 111540Z 20004KT 31/09 A303 RMK A01 T03140087  RH  025%=      5-min Rain = 0
KGU1 111541Z 19005KT 31/10 A303 RMK A01 T03140096  RH  027%=      5-min Rain = 0
KGU1 111542Z 19006KT 32/10 A303 RMK A01 T03150103  RH  028%=      5-min Rain = 0
KGU1 111543Z 19006KT 32/09 A303 RMK A01 T03160093  RH  026%=      5-min Rain = 0
KGU1 111544Z 20007KT 32/10 A303 RMK A01 T03150101  RH  028%=      5-min Rain = 0
KGU1 111545Z 21005KT 31/09 A303 RMK A01 T03140091  RH  026%=      5-min Rain = 0
KGU1 111546Z 21005KT 32/10 A303 RMK A01 T03150098  RH  027%=      5-min Rain = 0
KGU1 111547Z 20005KT 32/09 A303 RMK A01 T03180092  RH  025%=      5-min Rain = 0
KGU1 111548Z 20005KT 32/10 A303 RMK A01 T03180099  RH  027%=      5-min Rain = 0
KGU1 111549Z 20004KT 32/10 A303 RMK A01 T03190096  RH  026%=      5-min Rain = 0
KGU1 111550Z 21004KT 32/10 A303 RMK A01 T03200095  RH  026%=      5-min Rain = 0
KGU1 111551Z 22003KT 32/09 A303 RMK A01 T03220092  RH  025%=      5-min Rain = 0
KGU1 111552Z 21002KT 32/09 A303 RMK A01 T03240093  RH  025%=      5-min Rain = 0
KGU1 111553Z 17004KT 33/07 A303 RMK A01 T03250067  RH  021%=      5-min Rain = 0
KGU1 111554Z 16003KT 33/06 A303 RMK A01 T03250055  RH  019%=      5-min Rain = 0
KGU1 111555Z 19006KT 32/08 A303 RMK A01 T03240082  RH  023%=      5-min Rain = 0
KGU1 111556Z 19007KT 32/11 A303 RMK A01 T03230114  RH  029%=      5-min Rain = 0
KGU1 111557Z 20008KT 32/11 A303 RMK A01 T03200106  RH  028%=      5-min Rain = 0
KGU1 111558Z 20004KT 32/10 A303 RMK A01 T03170102  RH  027%=      5-min Rain = 0
KGU1 111559Z 21004KT 32/10 A303 RMK A01 T03180095  RH  026%=      5-min Rain = 0
KGU1 111600Z 21006KT 32/10 A303 RMK A01 T03210095  RH  026%=      5-min Rain = 0
KGU1 111601Z 20006KT 32/11 A303 RMK A01 T03210106  RH  028%=      5-min Rain = 0
KGU1 111602Z 18005KT 32/11 A303 RMK A01 T03200113  RH  029%=      5-min Rain = 0
KGU1 111603Z 19006KT 32/09 A303 RMK A01 T03200091  RH  025%=      5-min Rain = 0
KGU1 111604Z 21004KT 32/07 A303 RMK A01 T03200074  RH  022%=      5-min Rain = 0
KGU1 111605Z 20005KT 32/08 A303 RMK A01 T03210077  RH  023%=      5-min Rain = 0
KGU1 111606Z 20006KT 32/09 A303 RMK A01 T03220087  RH  024%=      5-min Rain = 0
KGU1 111607Z 19007KT 32/09 A303 RMK A01 T03210094  RH  025%=      5-min Rain = 0
KGU1 111608Z 19006KT 32/08 A303 RMK A01 T03200078  RH  023%=      5-min Rain = 0
KGU1 111609Z 19004KT 32/09 A303 RMK A01 T03190092  RH  025%=      5-min Rain = 0
KGU1 111610Z 19005KT 32/11 A303 RMK A01 T03220106  RH  027%=      5-min Rain = 0
KGU1 111611Z 18004KT 32/07 A303 RMK A01 T03230068  RH  021%=      5-min Rain = 0
KGU1 111612Z 20003KT 32/04 A303 RMK A01 T03200044  RH  018%=      5-min Rain = 0
KGU1 111613Z 19002KT 32/02 A303 RMK A01 T03200022  RH  015%=      5-min Rain = 0
KGU1 111614Z 19002KT 32/02 A303 RMK A01 T03210024  RH  015%=      5-min Rain = 0
KGU1 111615Z 20003KT 32/04 A303 RMK A01 T03240039  RH  017%=      5-min Rain = 0
KGU1 111616Z 18004KT 32/05 A303 RMK A01 T03240047  RH  018%=      5-min Rain = 0
KGU1 111617Z 18006KT 33/09 A303 RMK A01 T03260090  RH  024%=      5-min Rain = 0
KGU1 111618Z 17005KT 33/07 A303 RMK A01 T03260074  RH  021%=      5-min Rain = 0
KGU1 111619Z 20003KT 33/09 A303 RMK A01 T03280085  RH  023%=      5-min Rain = 0
KGU1 111620Z 21004KT 33/09 A303 RMK A01 T03300089  RH  023%=      5-min Rain = 0
KGU1 111621Z 18004KT 33/09 A303 RMK A01 T03280090  RH  024%=      5-min Rain = 0
KGU1 111622Z 18004KT 33/06 A303 RMK A01 T03290063  RH  020%=      5-min Rain = 0
KGU1 111623Z 18003KT 33/07 A3031 RMK A01 T03300069  RH  020%=      5-min Rain = 0
KGU1 111624Z 12001KT 33/06 A3031 RMK A01 T03300056  RH  019%=      5-min Rain = 0
KGU1 111625Z 15002KT 33/06 A303 RMK A01 T03290056  RH  019%=      5-min Rain = 0
KGU1 111626Z 16002KT 33/06 A303 RMK A01 T03280058  RH  019%=      5-min Rain = 0
KGU1 111627Z 13004KT 33/03 A303 RMK A01 T03290031  RH  016%=      5-min Rain = 0
KGU1 111628Z 14004KT 33/02 A303 RMK A01 T03290022  RH  015%=      5-min Rain = 0
KGU1 111629Z 16006KT 33/03 A303 RMK A01 T03300032  RH  016%=      5-min Rain = 0
KGU1 111630Z 16004KT 33/03 A303 RMK A01 T03310026  RH  015%=      5-min Rain = 0
KGU1 111631Z 15005KT 33/04 A303 RMK A01 T03300044  RH  017%=      5-min Rain = 0
KGU1 111632Z 13005KT 33/05 A303 RMK A01 T03290045  RH  017%=      5-min Rain = 0
KGU1 111633Z 11002KT 33/01 A303 RMK A01 T03290012  RH  014%=      5-min Rain = 0
KGU1 111634Z 10002KT 33/02 A303 RMK A01 T03290016  RH  014%=      5-min Rain = 0
KGU1 111635Z 12001KT 33/04 A303 RMK A01 T03300039  RH  016%=      5-min Rain = 0
KGU1 111636Z 15002KT 33/07 A303 RMK A01 T03310065  RH  020%=      5-min Rain = 0
KGU1 111637Z 15002KT 33/08 A303 RMK A01 T03310083  RH  022%=      5-min Rain = 0
KGU1 111638Z 15007KT 33/07 A303 RMK A01 T03300074  RH  021%=      5-min Rain = 0
KGU1 111639Z 15005KT 33/07 A303 RMK A01 T03290066  RH  020%=      5-min Rain = 0
KGU1 111640Z 16007KT 33/09 A303 RMK A01 T03290094  RH  024%=      5-min Rain = 0
KGU1 111641Z 17009KT 33/07 A303 RMK A01 T03290068  RH  020%=      5-min Rain = 0
KGU1 111642Z 17005KT 33/06 A303 RMK A01 T03260063  RH  020%=      5-min Rain = 0
KGU1 111643Z 16003KT 32/06 A303 RMK A01 T03230055  RH  019%=      5-min Rain = 0
KGU1 111644Z 13004KT 32/07 A303 RMK A01 T03230068  RH  021%=      5-min Rain = 0
KGU1 111645Z 12004KT 33/06 A303 RMK A01 T03260057  RH  019%=      5-min Rain = 0
KGU1 111646Z 14005KT 33/05 A303 RMK A01 T03290053  RH  018%=      5-min Rain = 0
KGU1 111647Z 16005KT 33/06 A303 RMK A01 T03320058  RH  019%=      5-min Rain = 0
KGU1 111648Z 13004KT 34/07 A303 RMK A01 T03350065  RH  019%=      5-min Rain = 0
KGU1 111649Z 13003KT 33/06 A303 RMK A01 T03330064  RH  019%=      5-min Rain = 0
KGU1 111650Z 18006KT 33/05 A303 RMK A01 T03320050  RH  017%=      5-min Rain = 0
KGU1 111651Z 20004KT 33/05 A303 RMK A01 T03320052  RH  018%=      5-min Rain = 0
KGU1 111652Z 21002KT 33/07 A303 RMK A01 T03310069  RH  020%=      5-min Rain = 0
KGU1 111653Z 33001KT 33/04 A303 RMK A01 T03300043  RH  017%=      5-min Rain = 0
KGU1 111654Z 16001KT 33/04 A303 RMK A01 T03280039  RH  017%=      5-min Rain = 0
KGU1 111655Z 16007KT 33/06 A303 RMK A01 T03300056  RH  019%=      5-min Rain = 0
KGU1 111656Z 16005KT 33/06 A303 RMK A01 T03320056  RH  018%=      5-min Rain = 0
KGU1 111657Z 17002KT 33/05 A303 RMK A01 T03330052  RH  018%=      5-min Rain = 0
KGU1 111658Z 19001KT 33/05 A303 RMK A01 T03340047  RH  017%=      5-min Rain = 0
KGU1 111659Z 20002KT 34/04 A303 RMK A01 T03360040  RH  016%=      5-min Rain = 0
KGU1 111700Z 35001KT 33/02 A303 RMK A01 T03340024  RH  014%=      5-min Rain = 0
KGU1 111701Z 13001KT 33/03 A303 RMK A01 T03330029  RH  015%=      5-min Rain = 0
KGU1 111702Z 08000KT 33/04 A303 RMK A01 T03340038  RH  016%=      5-min Rain = 0
KGU1 111703Z 09000KT 34/05 A3031 RMK A01 T03370051  RH  017%=      5-min Rain = 0
KGU1 111704Z 16003KT 34/06 A3031 RMK A01 T03380055  RH  018%=      5-min Rain = 0
KGU1 111705Z 16005KT 34/05 A303 RMK A01 T03410049  RH  017%=      5-min Rain = 0
KGU1 111706Z 13006KT 34/03 A303 RMK A01 T03400026  RH  014%=      5-min Rain = 0
KGU1 111707Z 13006KT 34/02 A303 RMK A01 T03380018  RH  013%=      5-min Rain = 0
KGU1 111708Z 12004KT 34/M00 A3031 RMK A01 T03351003  RH  012%=      5-min Rain = 0
KGU1 111709Z 13003KT 33/01 A3031 RMK A01 T03320009  RH  013%=      5-min Rain = 0
KGU1 111710Z 09004KT 33/01 A303 RMK A01 T03310012  RH  013%=      5-min Rain = 0
KGU1 111711Z 05003KT 33/02 A3031 RMK A01 T03320020  RH  014%=      5-min Rain = 0
KGU1 111712Z 34003KT 33/03 A3031 RMK A01 T03320032  RH  015%=      5-min Rain = 0
KGU1 111713Z 34002KT 33/03 A3031 RMK A01 T03320034  RH  016%=      5-min Rain = 0
KGU1 111714Z 07002KT 33/03 A3031 RMK A01 T03330027  RH  015%=      5-min Rain = 0
KGU1 111715Z 10001KT 33/03 A3031 RMK A01 T03340031  RH  015%=      5-min Rain = 0
KGU1 111716Z 17002KT 34/04 A3031 RMK A01 T03370038  RH  016%=      5-min Rain = 0
KGU1 111717Z 19005KT 34/03 A3031 RMK A01 T03400029  RH  014%=      5-min Rain = 0
KGU1 111718Z 19003KT 34/01 A3031 RMK A01 T03390009  RH  013%=      5-min Rain = 0
KGU1 111719Z 22001KT 34/01 A3031 RMK A01 T03360005  RH  012%=      5-min Rain = 0
KGU1 111720Z 19002KT 34/01 A3031 RMK A01 T03350008  RH  013%=      5-min Rain = 0
KGU1 111721Z 18008KT 34/00 A3031 RMK A01 T03370001  RH  012%=      5-min Rain = 0
KGU1 111722Z 17007KT 34/M01 A3031 RMK A01 T03351011  RH  011%=      5-min Rain = 0
KGU1 111723Z 15009KT 34/01 A3031 RMK A01 T03350006  RH  013%=      5-min Rain = 0
KGU1 111724Z 09005KT 33/01 A3031 RMK A01 T03340011  RH  013%=      5-min Rain = 0
KGU1 111725Z 09004KT 33/00 A3031 RMK A01 T03330004  RH  012%=      5-min Rain = 0
KGU1 111726Z 15006KT 33/02 A3031 RMK A01 T03340017  RH  014%=      5-min Rain = 0
KGU1 111727Z 15006KT 34/01 A3031 RMK A01 T03360007  RH  013%=      5-min Rain = 0
KGU1 111728Z 09003KT 33/00 A3031 RMK A01 T03340002  RH  012%=      5-min Rain = 0
KGU1 111729Z 08003KT 33/00 A3031 RMK A01 T03330001  RH  012%=      5-min Rain = 0
KGU1 111730Z 12006KT 33/01 A3031 RMK A01 T03330010  RH  013%=      5-min Rain = 0
KGU1 111731Z 13006KT 33/03 A3031 RMK A01 T03330027  RH  015%=      5-min Rain = 0
KGU1 111732Z 14007KT 33/02 A3031 RMK A01 T03340015  RH  013%=      5-min Rain = 0
KGU1 111733Z 13006KT 34/02 A3031 RMK A01 T03350018  RH  014%=      5-min Rain = 0
KGU1 111734Z 13005KT 33/02 A3031 RMK A01 T03330020  RH  014%=      5-min Rain = 0
KGU1 111735Z 12003KT 33/02 A3031 RMK A01 T03320020  RH  014%=      5-min Rain = 0
KGU1 111736Z 13002KT 33/03 A3031 RMK A01 T03320026  RH  015%=      5-min Rain = 0
KGU1 111737Z 15001KT 33/03 A3031 RMK A01 T03320028  RH  015%=      5-min Rain = 0
KGU1 111738Z 16003KT 33/04 A3031 RMK A01 T03320036  RH  016%=      5-min Rain = 0
KGU1 111739Z 15007KT 34/05 A3031 RMK A01 T03360045  RH  017%=      5-min Rain = 0
KGU1 111740Z 15005KT 34/03 A3031 RMK A01 T03400029  RH  014%=      5-min Rain = 0
KGU1 111741Z 16007KT 34/01 A3031 RMK A01 T03400014  RH  013%=      5-min Rain = 0
KGU1 111742Z 17006KT 34/03 A3031 RMK A01 T03410027  RH  014%=      5-min Rain = 0
KGU1 111743Z 14004KT 34/03 A3031 RMK A01 T03390032  RH  015%=      5-min Rain = 0
KGU1 111744Z 12002KT 34/03 A3031 RMK A01 T03360033  RH  015%=      5-min Rain = 0
KGU1 111745Z 12005KT 34/05 A3031 RMK A01 T03360050  RH  017%=      5-min Rain = 0
KGU1 111746Z 11005KT 34/05 A3031 RMK A01 T03350045  RH  017%=      5-min Rain = 0
KGU1 111747Z 15004KT 33/05 A3031 RMK A01 T03320049  RH  017%=      5-min Rain = 0
KGU1 111748Z 13006KT 34/05 A3031 RMK A01 T03350048  RH  017%=      5-min Rain = 0
KGU1 111749Z 14005KT 34/03 A3031 RMK A01 T03360032  RH  015%=      5-min Rain = 0
KGU1 111750Z 15006KT 34/03 A3031 RMK A01 T03360031  RH  015%=      5-min Rain = 0
KGU1 111751Z 16008KT 34/05 A3031 RMK A01 T03380047  RH  017%=      5-min Rain = 0
KGU1 111752Z 15006KT 34/05 A3031 RMK A01 T03360047  RH  017%=      5-min Rain = 0
KGU1 111753Z 16008KT 33/04 A3031 RMK A01 T03340039  RH  016%=      5-min Rain = 0
KGU1 111754Z 18009KT 34/04 A3031 RMK A01 T03400040  RH  016%=      5-min Rain = 0
KGU1 111755Z 19008KT 34/05 A3031 RMK A01 T03440046  RH  016%=      5-min Rain = 0
KGU1 111756Z 20007KT 34/05 A3031 RMK A01 T03410048  RH  016%=      5-min Rain = 0
KGU1 111757Z 19007KT 34/05 A3031 RMK A01 T03420051  RH  017%=      5-min Rain = 0
KGU1 111758Z 21007KT 34/05 A3031 RMK A01 T03440054  RH  017%=      5-min Rain = 0
KGU1 111759Z 21007KT 35/05 A3031 RMK A01 T03450052  RH  016%=      5-min Rain = 0
KGU1 111800Z 22004KT 34/05 A3031 RMK A01 T03420051  RH  017%=      5-min Rain = 0
KGU1 111801Z 23004KT 34/05 A3031 RMK A01 T03400053  RH  017%=      5-min Rain = 0
KGU1 111802Z 19002KT 34/05 A3031 RMK A01 T03410053  RH  017%=      5-min Rain = 0
KGU1 111803Z 15003KT 34/05 A3031 RMK A01 T03410052  RH  017%=      5-min Rain = 0
KGU1 111804Z 17009KT 34/06 A3031 RMK A01 T03430061  RH  018%=      5-min Rain = 0
KGU1 111805Z 16007KT 34/06 A3031 RMK A01 T03440057  RH  017%=      5-min Rain = 0
KGU1 111806Z 15003KT 34/06 A3031 RMK A01 T03410059  RH  018%=      5-min Rain = 0
KGU1 111807Z 19005KT 34/06 A3031 RMK A01 T03420063  RH  018%=      5-min Rain = 0
KGU1 111808Z 15008KT 34/07 A3031 RMK A01 T03440067  RH  019%=      5-min Rain = 0
KGU1 111809Z 16009KT 35/07 A3031 RMK A01 T03460066  RH  018%=      5-min Rain = 0
KGU1 111810Z 17008KT 35/07 A3031 RMK A01 T03470067  RH  018%=      5-min Rain = 0
KGU1 111811Z 18006KT 35/06 A3031 RMK A01 T03460063  RH  018%=      5-min Rain = 0
KGU1 111812Z 18004KT 34/06 A3031 RMK A01 T03410063  RH  018%=      5-min Rain = 0
KGU1 111813Z 21001KT 34/06 A3031 RMK A01 T03400063  RH  018%=      5-min Rain = 0
KGU1 111814Z 00001KT 34/07 A3031 RMK A01 T03400065  RH  019%=      5-min Rain = 0
KGU1 111815Z 36004KT 34/06 A3031 RMK A01 T03400063  RH  018%=      5-min Rain = 0
KGU1 111816Z 35004KT 34/07 A3031 RMK A01 T03370066  RH  019%=      5-min Rain = 0
KGU1 111817Z 33004KT 34/07 A303 RMK A01 T03380068  RH  019%=      5-min Rain = 0
KGU1 111818Z 11002KT 34/07 A3031 RMK A01 T03380066  RH  019%=      5-min Rain = 0
KGU1 111819Z 15007KT 34/06 A303 RMK A01 T03400060  RH  018%=      5-min Rain = 0
KGU1 111820Z 15006KT 34/06 A303 RMK A01 T03390057  RH  018%=      5-min Rain = 0
KGU1 111821Z 15009KT 34/06 A303 RMK A01 T03380063  RH  019%=      5-min Rain = 0
KGU1 111822Z 18005KT 34/07 A303 RMK A01 T03390068  RH  019%=      5-min Rain = 0
KGU1 111823Z 17006G11KT 34/07 A303 RMK A01 T03410065  RH  018%=      5-min Rain = 0
KGU1 111824Z 16009KT 34/06 A303 RMK A01 T03430061  RH  018%=      5-min Rain = 0
KGU1 111825Z 18005KT 34/06 A303 RMK A01 T03440059  RH  017%=      5-min Rain = 0
KGU1 111826Z 19004KT 34/06 A303 RMK A01 T03430057  RH  017%=      5-min Rain = 0
KGU1 111827Z 17005KT 34/06 A303 RMK A01 T03420062  RH  018%=      5-min Rain = 0
KGU1 111828Z 20003KT 34/06 A303 RMK A01 T03410058  RH  018%=      5-min Rain = 0
KGU1 111829Z 19003KT 34/06 A303 RMK A01 T03400060  RH  018%=      5-min Rain = 0
KGU1 111830Z 16003KT 34/06 A303 RMK A01 T03420062  RH  018%=      5-min Rain = 0
KGU1 111831Z 17002KT 34/07 A303 RMK A01 T03430065  RH  018%=      5-min Rain = 0
KGU1 111832Z 18002KT 35/07 A303 RMK A01 T03450069  RH  019%=      5-min Rain = 0
KGU1 111833Z 17002KT 35/07 A303 RMK A01 T03450066  RH  018%=      5-min Rain = 0
KGU1 111834Z 14004KT 35/07 A303 RMK A01 T03450068  RH  018%=      5-min Rain = 0
KGU1 111835Z 13002KT 35/07 A303 RMK A01 T03460070  RH  019%=      5-min Rain = 0
KGU1 111836Z 17004KT 35/07 A303 RMK A01 T03470071  RH  019%=      5-min Rain = 0
KGU1 111837Z 19007KT 35/07 A303 RMK A01 T03470067  RH  018%=      5-min Rain = 0
KGU1 111838Z 22004KT 35/07 A303 RMK A01 T03460070  RH  019%=      5-min Rain = 0
KGU1 111839Z 21002KT 35/07 A303 RMK A01 T03470068  RH  018%=      5-min Rain = 0
KGU1 111840Z 16005KT 35/07 A303 RMK A01 T03480071  RH  019%=      5-min Rain = 0
KGU1 111841Z 14005KT 35/08 A303 RMK A01 T03490075  RH  019%=      5-min Rain = 0
KGU1 111842Z 14006KT 35/07 A303 RMK A01 T03460073  RH  019%=      5-min Rain = 0
KGU1 111843Z 14001KT 35/07 A303 RMK A01 T03450073  RH  019%=      5-min Rain = 0
KGU1 111844Z 18001KT 35/07 A303 RMK A01 T03470073  RH  019%=      5-min Rain = 0
KGU1 111845Z 18004KT 35/07 A303 RMK A01 T03480072  RH  019%=      5-min Rain = 0
KGU1 111846Z 17007KT 35/08 A303 RMK A01 T03490075  RH  019%=      5-min Rain = 0
KGU1 111847Z 15010KT 35/08 A3029 RMK A01 T03530075  RH  019%=      5-min Rain = 0
KGU1 111848Z 14009KT 35/07 A3029 RMK A01 T03510074  RH  019%=      5-min Rain = 0
KGU1 111849Z 15013KT 35/07 A3029 RMK A01 T03500071  RH  018%=      5-min Rain = 0
KGU1 111850Z 15012KT 35/07 A3029 RMK A01 T03510067  RH  018%=      5-min Rain = 0
KGU1 111851Z 14010KT 35/07 A3029 RMK A01 T03490068  RH  018%=      5-min Rain = 0
KGU1 111852Z 13008KT 35/07 A303 RMK A01 T03480068  RH  018%=      5-min Rain = 0
KGU1 111853Z 12004KT 35/06 A303 RMK A01 T03480064  RH  018%=      5-min Rain = 0
KGU1 111854Z 01001KT 35/06 A303 RMK A01 T03470061  RH  017%=      5-min Rain = 0
KGU1 111855Z 00001KT 35/07 A3029 RMK A01 T03450065  RH  018%=      5-min Rain = 0
KGU1 111856Z 08003KT 35/06 A3029 RMK A01 T03470064  RH  018%=      5-min Rain = 0
KGU1 111857Z 06001KT 34/06 A3029 RMK A01 T03440061  RH  018%=      5-min Rain = 0
KGU1 111858Z 06003KT 34/07 A3029 RMK A01 T03440068  RH  019%=      5-min Rain = 0
KGU1 111859Z 00002KT 35/07 A3029 RMK A01 T03460066  RH  018%=      5-min Rain = 0
KGU1 111900Z 01001KT 35/07 A3029 RMK A01 T03480072  RH  019%=      5-min Rain = 0
KGU1 111901Z 20004KT 35/07 A3029 RMK A01 T03530069  RH  018%=      5-min Rain = 0
KGU1 111902Z 21005KT 36/07 A3029 RMK A01 T03550069  RH  018%=      5-min Rain = 0
KGU1 111903Z 18007KT 36/07 A3029 RMK A01 T03560071  RH  018%=      5-min Rain = 0
KGU1 111904Z 17006KT 36/07 A3029 RMK A01 T03570072  RH  018%=      5-min Rain = 0
KGU1 111905Z 14005KT 36/07 A3029 RMK A01 T03570072  RH  018%=      5-min Rain = 0
KGU1 111906Z 11004KT 36/07 A3029 RMK A01 T03550073  RH  018%=      5-min Rain = 0
KGU1 111907Z 12007KT 36/07 A3029 RMK A01 T03550072  RH  018%=      5-min Rain = 0
KGU1 111908Z 06007KT 35/07 A3029 RMK A01 T03530065  RH  017%=      5-min Rain = 0
KGU1 111909Z 05004KT 35/07 A3029 RMK A01 T03490065  RH  018%=      5-min Rain = 0
KGU1 111910Z 06003KT 35/07 A3029 RMK A01 T03470066  RH  018%=      5-min Rain = 0
KGU1 111911Z 07003KT 35/07 A3029 RMK A01 T03490067  RH  018%=      5-min Rain = 0
KGU1 111912Z 07002KT 35/06 A3029 RMK A01 T03490064  RH  018%=      5-min Rain = 0
KGU1 111913Z 02002KT 35/07 A3029 RMK A01 T03470065  RH  018%=      5-min Rain = 0
KGU1 111914Z 01001KT 35/07 A3028 RMK A01 T03450066  RH  018%=      5-min Rain = 0
KGU1 111915Z 09003KT 35/07 A3028 RMK A01 T03450070  RH  019%=      5-min Rain = 0
KGU1 111916Z 10004KT 35/07 A3028 RMK A01 T03450072  RH  019%=      5-min Rain = 0
KGU1 111917Z 09004KT 35/07 A3028 RMK A01 T03450068  RH  019%=      5-min Rain = 0
KGU1 111918Z 05008KT 35/06 A3029 RMK A01 T03460060  RH  017%=      5-min Rain = 0
KGU1 111919Z 06009G14KT 35/06 A3028 RMK A01 T03490057  RH  017%=      5-min Rain = 0
KGU1 111920Z 06009KT 35/06 A3028 RMK A01 T03500058  RH  017%=      5-min Rain = 0
KGU1 111921Z 05010KT 35/06 A3028 RMK A01 T03540061  RH  017%=      5-min Rain = 0
KGU1 111922Z 04012KT 36/06 A3028 RMK A01 T03560059  RH  016%=      5-min Rain = 0
KGU1 111923Z 07007KT 35/06 A3028 RMK A01 T03530060  RH  017%=      5-min Rain = 0
KGU1 111924Z 06007KT 35/06 A3028 RMK A01 T03520055  RH  016%=      5-min Rain = 0
KGU1 111925Z 03004KT 35/06 A3028 RMK A01 T03490055  RH  017%=      5-min Rain = 0
KGU1 111926Z 11006KT 35/06 A3028 RMK A01 T03480059  RH  017%=      5-min Rain = 0
KGU1 111927Z 10005KT 35/06 A3028 RMK A01 T03500055  RH  016%=      5-min Rain = 0
KGU1 111928Z 08005KT 35/05 A3028 RMK A01 T03470054  RH  017%=      5-min Rain = 0
KGU1 111929Z 06004KT 35/06 A3028 RMK A01 T03470057  RH  017%=      5-min Rain = 0
KGU1 111930Z 07007KT 35/06 A3028 RMK A01 T03490060  RH  017%=      5-min Rain = 0
KGU1 111931Z 07007KT 35/06 A3028 RMK A01 T03510058  RH  017%=      5-min Rain = 0
KGU1 111932Z 07003KT 35/06 A3028 RMK A01 T03500056  RH  017%=      5-min Rain = 0
KGU1 111933Z 09004G9KT 35/06 A3028 RMK A01 T03490057  RH  017%=      5-min Rain = 0
KGU1 111934Z 07011KT 35/06 A3028 RMK A01 T03500056  RH  017%=      5-min Rain = 0
KGU1 111935Z 08008KT 35/06 A3028 RMK A01 T03530058  RH  017%=      5-min Rain = 0
KGU1 111936Z 09009KT 36/06 A3028 RMK A01 T03550056  RH  016%=      5-min Rain = 0
KGU1 111937Z 13009KT 35/05 A3028 RMK A01 T03540052  RH  016%=      5-min Rain = 0
KGU1 111938Z 18002G8KT 35/05 A3027 RMK A01 T03520053  RH  016%=      5-min Rain = 0
KGU1 111939Z 14008KT 35/05 A3027 RMK A01 T03520053  RH  016%=      5-min Rain = 0
KGU1 111940Z 16008G13KT 35/06 A3027 RMK A01 T03510056  RH  016%=      5-min Rain = 0
KGU1 111941Z 16009KT 36/06 A3027 RMK A01 T03560056  RH  016%=      5-min Rain = 0
KGU1 111942Z 18008KT 36/06 A3027 RMK A01 T03570056  RH  016%=      5-min Rain = 0
KGU1 111943Z 21004KT 36/05 A3027 RMK A01 T03550051  RH  016%=      5-min Rain = 0
KGU1 111944Z 18005G11KT 35/05 A3027 RMK A01 T03520053  RH  016%=      5-min Rain = 0
KGU1 111945Z 13012KT 35/06 A3027 RMK A01 T03530055  RH  016%=      5-min Rain = 0
KGU1 111946Z 14011KT 36/05 A3027 RMK A01 T03580054  RH  016%=      5-min Rain = 0
KGU1 111947Z 14010KT 36/05 A3027 RMK A01 T03580054  RH  016%=      5-min Rain = 0
KGU1 111948Z 14010KT 36/05 A3027 RMK A01 T03590052  RH  015%=      5-min Rain = 0
KGU1 111949Z 14009KT 36/05 A3027 RMK A01 T03590054  RH  016%=      5-min Rain = 0
KGU1 111950Z 15011G17KT 36/05 A3027 RMK A01 T03640054  RH  015%=      5-min Rain = 0
KGU1 111951Z 15013G18KT 37/05 A3027 RMK A01 T03660050  RH  015%=      5-min Rain = 0
KGU1 111952Z 17006KT 36/05 A3027 RMK A01 T03640048  RH  015%=      5-min Rain = 0
KGU1 111953Z 17005KT 36/05 A3027 RMK A01 T03630051  RH  015%=      5-min Rain = 0
KGU1 111954Z 15005KT 36/05 A3027 RMK A01 T03630048  RH  015%=      5-min Rain = 0
KGU1 111955Z 13008G15KT 36/05 A3027 RMK A01 T03630049  RH  015%=      5-min Rain = 0
KGU1 111956Z 12013G19KT 37/05 A3026 RMK A01 T03650045  RH  014%=      5-min Rain = 0
KGU1 111957Z 13013KT 37/04 A3027 RMK A01 T03670038  RH  013%=      5-min Rain = 0
KGU1 111958Z 11013KT 37/04 A3027 RMK A01 T03670036  RH  013%=      5-min Rain = 0
KGU1 111959Z 14010KT 37/04 A3027 RMK A01 T03650037  RH  013%=      5-min Rain = 0
KGU1 112000Z 13007KT 36/04 A3027 RMK A01 T03630037  RH  013%=      5-min Rain = 0
KGU1 112001Z 12005KT 36/05 A3027 RMK A01 T03640045  RH  014%=      5-min Rain = 0
KGU1 112002Z 10005KT 37/04 A3027 RMK A01 T03680044  RH  014%=      5-min Rain = 0
KGU1 112003Z 14005KT 37/04 A3027 RMK A01 T03680039  RH  013%=      5-min Rain = 0
KGU1 112004Z 16007KT 37/04 A3026 RMK A01 T03670038  RH  013%=      5-min Rain = 0
KGU1 112005Z 16006KT 37/03 A3026 RMK A01 T03660034  RH  013%=      5-min Rain = 0
KGU1 112006Z 16002KT 36/04 A3026 RMK A01 T03640036  RH  013%=      5-min Rain = 0
KGU1 112007Z 10003KT 36/04 A3026 RMK A01 T03640035  RH  013%=      5-min Rain = 0
KGU1 112008Z 10006KT 36/04 A3026 RMK A01 T03630036  RH  013%=      5-min Rain = 0
KGU1 112009Z 09004KT 36/03 A3026 RMK A01 T03630034  RH  013%=      5-min Rain = 0
KGU1 112010Z 11010KT 36/04 A3026 RMK A01 T03640037  RH  013%=      5-min Rain = 0
KGU1 112011Z 13009KT 36/03 A3026 RMK A01 T03630031  RH  013%=      5-min Rain = 0
KGU1 112012Z 13009KT 36/04 A3026 RMK A01 T03630036  RH  013%=      5-min Rain = 0
KGU1 112013Z 15013KT 37/04 A3026 RMK A01 T03660038  RH  013%=      5-min Rain = 0
KGU1 112014Z 15011G16KT 37/04 A3026 RMK A01 T03680035  RH  013%=      5-min Rain = 0
KGU1 112015Z 14007KT 37/03 A3026 RMK A01 T03650033  RH  013%=      5-min Rain = 0
KGU1 112016Z 15007KT 37/04 A3026 RMK A01 T03650038  RH  013%=      5-min Rain = 0
KGU1 112017Z 15007KT 37/04 A3026 RMK A01 T03660038  RH  013%=      5-min Rain = 0
KGU1 112018Z 14013G19KT 37/04 A3026 RMK A01 T03690040  RH  013%=      5-min Rain = 0
KGU1 112019Z 10015G20KT 37/04 A3026 RMK A01 T03730038  RH  013%=      5-min Rain = 0
KGU1 112020Z 10015KT 37/04 A3026 RMK A01 T03720038  RH  013%=      5-min Rain = 0
KGU1 112021Z 11013KT 37/03 A3026 RMK A01 T03680032  RH  013%=      5-min Rain = 0
KGU1 112022Z 12012KT 36/03 A3026 RMK A01 T03640032  RH  013%=      5-min Rain = 0
KGU1 112023Z 12012KT 36/03 A3026 RMK A01 T03620031  RH  013%=      5-min Rain = 0
KGU1 112024Z 10008G15KT 36/03 A3026 RMK A01 T03600030  RH  013%=      5-min Rain = 0
KGU1 112025Z 12009G15KT 36/03 A3026 RMK A01 T03600034  RH  013%=      5-min Rain = 0
KGU1 112026Z 14012G17KT 36/04 A3026 RMK A01 T03630035  RH  013%=      5-min Rain = 0
KGU1 112027Z 15014KT 37/03 A3026 RMK A01 T03650034  RH  013%=      5-min Rain = 0
KGU1 112028Z 14012KT 36/04 A3026 RMK A01 T03630035  RH  013%=      5-min Rain = 0
KGU1 112029Z 12010KT 37/04 A3026 RMK A01 T03660043  RH  014%=      5-min Rain = 0
KGU1 112030Z 09013KT 37/04 A3026 RMK A01 T03700040  RH  013%=      5-min Rain = 0
KGU1 112031Z 09009KT 36/04 A3026 RMK A01 T03640035  RH  013%=      5-min Rain = 0
KGU1 112032Z 09010KT 36/04 A3026 RMK A01 T03600037  RH  014%=      5-min Rain = 0
KGU1 112033Z 10012KT 36/04 A3026 RMK A01 T03590036  RH  014%=      5-min Rain = 0
KGU1 112034Z 07011KT 36/04 A3026 RMK A01 T03600036  RH  014%=      5-min Rain = 0
KGU1 112035Z 07009KT 36/04 A3026 RMK A01 T03620036  RH  013%=      5-min Rain = 0
KGU1 112036Z 06010KT 36/04 A3026 RMK A01 T03620038  RH  014%=      5-min Rain = 0
KGU1 112037Z 07008G13KT 36/04 A3026 RMK A01 T03640039  RH  014%=      5-min Rain = 0
KGU1 112038Z 05010KT 37/04 A3026 RMK A01 T03660038  RH  013%=      5-min Rain = 0
KGU1 112039Z 05009KT 36/03 A3026 RMK A01 T03630034  RH  013%=      5-min Rain = 0
KGU1 112040Z 05009KT 36/04 A3026 RMK A01 T03620037  RH  013%=      5-min Rain = 0
KGU1 112041Z 04007KT 36/03 A3026 RMK A01 T03620033  RH  013%=      5-min Rain = 0
KGU1 112042Z 06009KT 36/04 A3026 RMK A01 T03610035  RH  013%=      5-min Rain = 0
KGU1 112043Z 06008KT 36/04 A3026 RMK A01 T03600037  RH  014%=      5-min Rain = 0
KGU1 112044Z 06005KT 36/04 A3026 RMK A01 T03590038  RH  014%=      5-min Rain = 0
KGU1 112045Z 06007KT 36/04 A3026 RMK A01 T03600037  RH  014%=      5-min Rain = 0
KGU1 112046Z 06005KT 36/03 A3026 RMK A01 T03580033  RH  013%=      5-min Rain = 0
KGU1 112047Z 04003KT 36/03 A3026 RMK A01 T03570033  RH  013%=      5-min Rain = 0
KGU1 112048Z 05001KT 36/04 A3026 RMK A01 T03580035  RH  014%=      5-min Rain = 0
KGU1 112049Z 10006KT 36/04 A3026 RMK A01 T03600039  RH  014%=      5-min Rain = 0
KGU1 112050Z 10007KT 36/04 A3025 RMK A01 T03610041  RH  014%=      5-min Rain = 0
KGU1 112051Z 10005KT 36/04 A3025 RMK A01 T03630040  RH  014%=      5-min Rain = 0
KGU1 112052Z 10004KT 36/04 A3025 RMK A01 T03610039  RH  014%=      5-min Rain = 0
KGU1 112053Z 07006KT 36/04 A3025 RMK A01 T03580039  RH  014%=      5-min Rain = 0
KGU1 112054Z 07007KT 35/04 A3025 RMK A01 T03540035  RH  014%=      5-min Rain = 0
KGU1 112055Z 08005KT 35/04 A3025 RMK A01 T03490035  RH  014%=      5-min Rain = 0
KGU1 112056Z 10008KT 35/04 A3025 RMK A01 T03500038  RH  015%=      5-min Rain = 0
KGU1 112057Z 14011KT 36/04 A3025 RMK A01 T03550037  RH  014%=      5-min Rain = 0
KGU1 112058Z 13009KT 36/04 A3025 RMK A01 T03590038  RH  014%=      5-min Rain = 0
KGU1 112059Z 14012KT 36/04 A3025 RMK A01 T03610039  RH  014%=      5-min Rain = 0
KGU1 112100Z 15011KT 36/04 A3025 RMK A01 T03630040  RH  014%=      5-min Rain = 0
KGU1 112101Z 16010KT 36/04 A3025 RMK A01 T03630040  RH  014%=      5-min Rain = 0
KGU1 112102Z 17010KT 37/04 A3025 RMK A01 T03650042  RH  014%=      5-min Rain = 0
KGU1 112103Z 17010KT 37/05 A3025 RMK A01 T03690045  RH  014%=      5-min Rain = 0
KGU1 112104Z 16011KT 37/04 A3025 RMK A01 T03690040  RH  013%=      5-min Rain = 0
KGU1 112105Z 18006KT 37/04 A3025 RMK A01 T03660038  RH  013%=      5-min Rain = 0
KGU1 112106Z 17009KT 37/04 A3025 RMK A01 T03660039  RH  013%=      5-min Rain = 0
KGU1 112107Z 16009KT 37/04 A3024 RMK A01 T03670042  RH  014%=      5-min Rain = 0
KGU1 112108Z 14007KT 37/04 A3024 RMK A01 T03650035  RH  013%=      5-min Rain = 0
KGU1 112109Z 15006KT 36/04 A3024 RMK A01 T03620040  RH  014%=      5-min Rain = 0
KGU1 112110Z 14004KT 37/04 A3024 RMK A01 T03650041  RH  014%=      5-min Rain = 0
KGU1 112111Z 15011KT 37/04 A3024 RMK A01 T03660038  RH  013%=      5-min Rain = 0
KGU1 112112Z 13010KT 36/04 A3024 RMK A01 T03640035  RH  013%=      5-min Rain = 0
KGU1 112113Z 15009KT 36/04 A3024 RMK A01 T03620036  RH  013%=      5-min Rain = 0
KGU1 112114Z 17007KT 36/03 A3024 RMK A01 T03610033  RH  013%=      5-min Rain = 0
KGU1 112115Z 15006KT 36/03 A3024 RMK A01 T03570030  RH  013%=      5-min Rain = 0
KGU1 112116Z 13004KT 36/03 A3024 RMK A01 T03570030  RH  013%=      5-min Rain = 0
KGU1 112117Z 12004KT 36/03 A3024 RMK A01 T03570031  RH  013%=      5-min Rain = 0
KGU1 112118Z 09005KT 36/04 A3024 RMK A01 T03600037  RH  014%=      5-min Rain = 0
KGU1 112119Z 10006KT 36/04 A3024 RMK A01 T03630042  RH  014%=      5-min Rain = 0
KGU1 112120Z 10008KT 37/04 A3024 RMK A01 T03670038  RH  013%=      5-min Rain = 0
KGU1 112121Z 09010G15KT 37/04 A3024 RMK A01 T03670038  RH  013%=      5-min Rain = 0
KGU1 112122Z 07013G18KT 37/04 A3024 RMK A01 T03650037  RH  013%=      5-min Rain = 0
KGU1 112123Z 07013KT 36/03 A3024 RMK A01 T03630033  RH  013%=      5-min Rain = 0
KGU1 112124Z 07013KT 36/03 A3024 RMK A01 T03610033  RH  013%=      5-min Rain = 0
KGU1 112125Z 10011G16KT 36/03 A3024 RMK A01 T03610031  RH  013%=      5-min Rain = 0
KGU1 112126Z 14003G9KT 36/03 A3024 RMK A01 T03580027  RH  013%=      5-min Rain = 0
KGU1 112127Z 10005G11KT 36/03 A3024 RMK A01 T03570032  RH  013%=      5-min Rain = 0
KGU1 112128Z 13010KT 36/04 A3024 RMK A01 T03620036  RH  013%=      5-min Rain = 0
KGU1 112129Z 13013KT 37/04 A3024 RMK A01 T03650035  RH  013%=      5-min Rain = 0
KGU1 112130Z 12013G18KT 37/03 A3024 RMK A01 T03650033  RH  013%=      5-min Rain = 0
KGU1 112131Z 12013G19KT 37/03 A3024 RMK A01 T03660033  RH  013%=      5-min Rain = 0
KGU1 112132Z 12009KT 36/04 A3024 RMK A01 T03640036  RH  013%=      5-min Rain = 0
KGU1 112133Z 11011KT 37/04 A3024 RMK A01 T03670037  RH  013%=      5-min Rain = 0
KGU1 112134Z 10010KT 37/04 A3024 RMK A01 T03680037  RH  013%=      5-min Rain = 0
KGU1 112135Z 12007KT 37/03 A3024 RMK A01 T03670033  RH  013%=      5-min Rain = 0
KGU1 112136Z 08005KT 36/03 A3024 RMK A01 T03630033  RH  013%=      5-min Rain = 0
KGU1 112137Z 06008KT 36/03 A3024 RMK A01 T03620033  RH  013%=      5-min Rain = 0
KGU1 112138Z 06004KT 36/03 A3024 RMK A01 T03600033  RH  013%=      5-min Rain = 0
KGU1 112139Z 08005KT 36/03 A3024 RMK A01 T03590032  RH  013%=      5-min Rain = 0
KGU1 112140Z 06008KT 36/04 A3024 RMK A01 T03620039  RH  014%=      5-min Rain = 0
KGU1 112141Z 04007KT 36/03 A3024 RMK A01 T03630031  RH  013%=      5-min Rain = 0
KGU1 112142Z 04006KT 36/03 A3024 RMK A01 T03600031  RH  013%=      5-min Rain = 0
KGU1 112143Z 05006KT 36/04 A3024 RMK A01 T03610036  RH  013%=      5-min Rain = 0
KGU1 112144Z 06005G12KT 36/04 A3024 RMK A01 T03630036  RH  013%=      5-min Rain = 0
KGU1 112145Z 11012G17KT 37/04 A3023 RMK A01 T03660037  RH  013%=      5-min Rain = 0
KGU1 112146Z 11013KT 37/03 A3023 RMK A01 T03650029  RH  013%=      5-min Rain = 0
KGU1 112147Z 11012KT 36/03 A3023 RMK A01 T03630027  RH  012%=      5-min Rain = 0
KGU1 112148Z 10011KT 36/03 A3023 RMK A01 T03640030  RH  013%=      5-min Rain = 0
KGU1 112149Z 11008KT 36/03 A3023 RMK A01 T03640028  RH  013%=      5-min Rain = 0
KGU1 112150Z 12006KT 36/03 A3023 RMK A01 T03640032  RH  013%=      5-min Rain = 0
KGU1 112151Z 11011KT 36/03 A3023 RMK A01 T03640030  RH  013%=      5-min Rain = 0
KGU1 112152Z 11008KT 36/03 A3023 RMK A01 T03620028  RH  013%=      5-min Rain = 0
KGU1 112153Z 08007KT 36/03 A3023 RMK A01 T03610030  RH  013%=      5-min Rain = 0
KGU1 112154Z 11005KT 36/03 A3023 RMK A01 T03610033  RH  013%=      5-min Rain = 0
KGU1 112155Z 15006KT 37/04 A3023 RMK A01 T03650037  RH  013%=      5-min Rain = 0
KGU1 112156Z 13004KT 37/03 A3023 RMK A01 T03660033  RH  013%=      5-min Rain = 0
KGU1 112157Z 14009G16KT 37/03 A3023 RMK A01 T03680034  RH  013%=      5-min Rain = 0
KGU1 112158Z 10010KT 37/04 A3023 RMK A01 T03690035  RH  013%=      5-min Rain = 0
KGU1 112159Z 11008KT 37/03 A3023 RMK A01 T03660031  RH  013%=      5-min Rain = 0
KGU1 112200Z 13011KT 37/04 A3023 RMK A01 T03660035  RH  013%=      5-min Rain = 0
KGU1 112201Z 12013KT 37/03 A3023 RMK A01 T03680031  RH  013%=      5-min Rain = 0
KGU1 112202Z 12011KT 37/03 A3023 RMK A01 T03650031  RH  013%=      5-min Rain = 0
KGU1 112203Z 12011KT 37/03 A3023 RMK A01 T03660031  RH  013%=      5-min Rain = 0
KGU1 112204Z 14008KT 37/03 A3023 RMK A01 T03650029  RH  013%=      5-min Rain = 0
KGU1 112205Z 16007KT 36/03 A3023 RMK A01 T03640031  RH  013%=      5-min Rain = 0
KGU1 112206Z 13014G19KT 37/03 A3023 RMK A01 T03660034  RH  013%=      5-min Rain = 0
KGU1 112207Z 10011KT 37/03 A3023 RMK A01 T03680032  RH  013%=      5-min Rain = 0
KGU1 112208Z 12008KT 37/03 A3023 RMK A01 T03670030  RH  012%=      5-min Rain = 0
KGU1 112209Z 12010KT 37/03 A3023 RMK A01 T03670030  RH  013%=      5-min Rain = 0
KGU1 112210Z 12009KT 37/03 A3023 RMK A01 T03680030  RH  012%=      5-min Rain = 0
KGU1 112211Z 13010KT 37/03 A3023 RMK A01 T03680027  RH  012%=      5-min Rain = 0
KGU1 112212Z 14009KT 37/03 A3023 RMK A01 T03650026  RH  012%=      5-min Rain = 0
KGU1 112213Z 12009KT 36/03 A3023 RMK A01 T03640028  RH  013%=      5-min Rain = 0
KGU1 112214Z 13010KT 37/03 A3023 RMK A01 T03670032  RH  013%=      5-min Rain = 0
KGU1 112215Z 11011KT 37/03 A3023 RMK A01 T03680027  RH  012%=      5-min Rain = 0
KGU1 112216Z 08012KT 37/03 A3023 RMK A01 T03670029  RH  012%=      5-min Rain = 0
KGU1 112217Z 08012G17KT 37/03 A3023 RMK A01 T03660031  RH  013%=      5-min Rain = 0
KGU1 112218Z 10014G19KT 37/03 A3023 RMK A01 T03670033  RH  013%=      5-min Rain = 0
KGU1 112219Z 11016KT 37/03 A3023 RMK A01 T03670030  RH  012%=      5-min Rain = 0
KGU1 112220Z 12013KT 37/03 A3023 RMK A01 T03660029  RH  012%=      5-min Rain = 0
KGU1 112221Z 12012KT 36/03 A3023 RMK A01 T03640029  RH  013%=      5-min Rain = 0
KGU1 112222Z 11011KT 36/03 A3023 RMK A01 T03640031  RH  013%=      5-min Rain = 0
KGU1 112223Z 13010KT 37/03 A3023 RMK A01 T03670030  RH  012%=      5-min Rain = 0
KGU1 112224Z 11009KT 37/03 A3023 RMK A01 T03660031  RH  013%=      5-min Rain = 0
KGU1 112225Z 11010KT 37/03 A3023 RMK A01 T03670031  RH  013%=      5-min Rain = 0
KGU1 112226Z 07009KT 37/03 A3023 RMK A01 T03670032  RH  013%=      5-min Rain = 0
KGU1 112227Z 08008KT 36/03 A3023 RMK A01 T03640027  RH  012%=      5-min Rain = 0
KGU1 112228Z 07007KT 36/03 A3023 RMK A01 T03610027  RH  013%=      5-min Rain = 0
KGU1 112229Z 11005KT 36/03 A3023 RMK A01 T03590026  RH  013%=      5-min Rain = 0
KGU1 112230Z 12003KT 36/03 A3023 RMK A01 T03590027  RH  013%=      5-min Rain = 0
KGU1 112231Z 10004KT 36/04 A3023 RMK A01 T03600036  RH  014%=      5-min Rain = 0
KGU1 112232Z 09008KT 36/04 A3023 RMK A01 T03630035  RH  013%=      5-min Rain = 0
KGU1 112233Z 09008KT 37/04 A3023 RMK A01 T03650035  RH  013%=      5-min Rain = 0
KGU1 112234Z 09006KT 36/03 A3023 RMK A01 T03640034  RH  013%=      5-min Rain = 0
KGU1 112235Z 09003KT 36/03 A3023 RMK A01 T03630032  RH  013%=      5-min Rain = 0
KGU1 112236Z 13006KT 36/03 A3023 RMK A01 T03610030  RH  013%=      5-min Rain = 0
KGU1 112237Z 13008KT 36/04 A3023 RMK A01 T03630035  RH  013%=      5-min Rain = 0
KGU1 112238Z 13008KT 37/03 A3023 RMK A01 T03660034  RH  013%=      5-min Rain = 0
KGU1 112239Z 10007KT 37/04 A3023 RMK A01 T03650036  RH  013%=      5-min Rain = 0
KGU1 112240Z 08009KT 37/03 A3023 RMK A01 T03650031  RH  013%=      5-min Rain = 0
KGU1 112241Z 07007KT 36/03 A3023 RMK A01 T03630034  RH  013%=      5-min Rain = 0
KGU1 112242Z 08007KT 36/04 A3023 RMK A01 T03640036  RH  013%=      5-min Rain = 0
KGU1 112243Z 08012KT 37/04 A3023 RMK A01 T03660039  RH  013%=      5-min Rain = 0
KGU1 112244Z 07012KT 37/03 A3023 RMK A01 T03660028  RH  012%=      5-min Rain = 0
KGU1 112245Z 06007KT 36/03 A3023 RMK A01 T03600028  RH  013%=      5-min Rain = 0
KGU1 112246Z 09005KT 36/03 A3023 RMK A01 T03580029  RH  013%=      5-min Rain = 0
KGU1 112247Z 11005KT 36/03 A3023 RMK A01 T03580031  RH  013%=      5-min Rain = 0
KGU1 112248Z 08007KT 36/04 A3023 RMK A01 T03610039  RH  014%=      5-min Rain = 0
KGU1 112249Z 07013G18KT 36/03 A3023 RMK A01 T03630034  RH  013%=      5-min Rain = 0
KGU1 112250Z 08010KT 36/03 A3023 RMK A01 T03610031  RH  013%=      5-min Rain = 0
KGU1 112251Z 09011KT 36/03 A3023 RMK A01 T03610034  RH  013%=      5-min Rain = 0
KGU1 112252Z 08010KT 36/04 A3023 RMK A01 T03590035  RH  014%=      5-min Rain = 0
KGU1 112253Z 08009KT 36/03 A3023 RMK A01 T03560030  RH  013%=      5-min Rain = 0
KGU1 112254Z 09006KT 35/03 A3023 RMK A01 T03530030  RH  014%=      5-min Rain = 0
KGU1 112255Z 11012KT 35/03 A3023 RMK A01 T03540030  RH  013%=      5-min Rain = 0
KGU1 112256Z 09009KT 36/03 A3023 RMK A01 T03560029  RH  013%=      5-min Rain = 0
KGU1 112257Z 08009KT 36/03 A3022 RMK A01 T03570031  RH  013%=      5-min Rain = 0
KGU1 112258Z 09006KT 36/03 A3022 RMK A01 T03580029  RH  013%=      5-min Rain = 0
KGU1 112259Z 10003KT 36/03 A3022 RMK A01 T03570030  RH  013%=      5-min Rain = 0
KGU1 112300Z 09005KT 36/03 A3022 RMK A01 T03580034  RH  014%=      5-min Rain = 0
KGU1 112301Z 10006KT 36/04 A3022 RMK A01 T03600036  RH  014%=      5-min Rain = 0
KGU1 112302Z 12008KT 36/03 A3022 RMK A01 T03600034  RH  013%=      5-min Rain = 0
KGU1 112303Z 09007KT 36/04 A3022 RMK A01 T03620035  RH  013%=      5-min Rain = 0
KGU1 112304Z 10008KT 36/04 A3022 RMK A01 T03620038  RH  014%=      5-min Rain = 0
KGU1 112305Z 09007KT 36/03 A3022 RMK A01 T03610034  RH  013%=      5-min Rain = 0
KGU1 112306Z 12009KT 36/04 A3022 RMK A01 T03620037  RH  014%=      5-min Rain = 0
KGU1 112307Z 11011KT 36/04 A3022 RMK A01 T03640039  RH  014%=      5-min Rain = 0
KGU1 112308Z 10011KT 36/04 A3022 RMK A01 T03630037  RH  013%=      5-min Rain = 0
KGU1 112309Z 09007KT 36/04 A3022 RMK A01 T03590037  RH  014%=      5-min Rain = 0
KGU1 112310Z 10005KT 36/04 A3022 RMK A01 T03590038  RH  014%=      5-min Rain = 0
KGU1 112311Z 12003KT 36/03 A3022 RMK A01 T03590033  RH  013%=      5-min Rain = 0
KGU1 112312Z 12004KT 36/03 A3022 RMK A01 T03580033  RH  013%=      5-min Rain = 0
KGU1 112313Z 12005KT 36/03 A3022 RMK A01 T03570033  RH  014%=      5-min Rain = 0
KGU1 112314Z 09004KT 36/03 A3022 RMK A01 T03550033  RH  014%=      5-min Rain = 0
KGU1 112315Z 07010G16KT 36/04 A3022 RMK A01 T03570038  RH  014%=      5-min Rain = 0
KGU1 112316Z 14012G17KT 36/04 A3021 RMK A01 T03590038  RH  014%=      5-min Rain = 0
KGU1 112317Z 13013KT 36/04 A3022 RMK A01 T03610036  RH  014%=      5-min Rain = 0
KGU1 112318Z 12011KT 36/04 A3022 RMK A01 T03620036  RH  013%=      5-min Rain = 0
KGU1 112319Z 13010KT 36/04 A3022 RMK A01 T03640035  RH  013%=      5-min Rain = 0
KGU1 112320Z 12013G18KT 37/03 A3021 RMK A01 T03650034  RH  013%=      5-min Rain = 0
KGU1 112321Z 11010KT 36/03 A3022 RMK A01 T03640029  RH  013%=      5-min Rain = 0
KGU1 112322Z 11009KT 36/03 A3022 RMK A01 T03630033  RH  013%=      5-min Rain = 0
KGU1 112323Z 10010KT 37/04 A3022 RMK A01 T03650035  RH  013%=      5-min Rain = 0
KGU1 112324Z 09011KT 36/04 A3022 RMK A01 T03640036  RH  013%=      5-min Rain = 0
KGU1 112325Z 10012KT 36/04 A3022 RMK A01 T03620036  RH  013%=      5-min Rain = 0
KGU1 112326Z 08012KT 36/04 A3022 RMK A01 T03610038  RH  014%=      5-min Rain = 0
KGU1 112327Z 08011KT 36/04 A3022 RMK A01 T03600037  RH  014%=      5-min Rain = 0
KGU1 112328Z 09006KT 36/03 A3022 RMK A01 T03590034  RH  013%=      5-min Rain = 0
KGU1 112329Z 09008KT 36/04 A3022 RMK A01 T03580038  RH  014%=      5-min Rain = 0
KGU1 112330Z 09010KT 36/04 A3022 RMK A01 T03580036  RH  014%=      5-min Rain = 0
KGU1 112331Z 08007KT 36/04 A3022 RMK A01 T03590039  RH  014%=      5-min Rain = 0
KGU1 112332Z 11009KT 36/04 A3022 RMK A01 T03610040  RH  014%=      5-min Rain = 0
KGU1 112333Z 10010KT 36/04 A3022 RMK A01 T03610038  RH  014%=      5-min Rain = 0
KGU1 112334Z 12012KT 36/04 A3022 RMK A01 T03600038  RH  014%=      5-min Rain = 0
KGU1 112335Z 11011KT 36/03 A3022 RMK A01 T03570033  RH  014%=      5-min Rain = 0
KGU1 112336Z 12007KT 35/03 A3022 RMK A01 T03520031  RH  014%=      5-min Rain = 0
KGU1 112337Z 11005KT 35/03 A3022 RMK A01 T03520034  RH  014%=      5-min Rain = 0
KGU1 112338Z 12008KT 36/04 A3022 RMK A01 T03560037  RH  014%=      5-min Rain = 0
KGU1 112339Z 11010G15KT 36/04 A3022 RMK A01 T03580036  RH  014%=      5-min Rain = 0
KGU1 112340Z 10012KT 36/03 A3022 RMK A01 T03590034  RH  013%=      5-min Rain = 0
KGU1 112341Z 11011KT 36/03 A3022 RMK A01 T03590033  RH  013%=      5-min Rain = 0
KGU1 112342Z 10010KT 36/03 A3022 RMK A01 T03580034  RH  013%=      5-min Rain = 0
KGU1 112343Z 11012KT 36/04 A3022 RMK A01 T03590035  RH  014%=      5-min Rain = 0
KGU1 112344Z 11012KT 36/03 A3022 RMK A01 T03570029  RH  013%=      5-min Rain = 0
KGU1 112345Z 11011KT 36/03 A3022 RMK A01 T03550029  RH  013%=      5-min Rain = 0
KGU1 112346Z 12009KT 35/03 A3022 RMK A01 T03540028  RH  013%=      5-min Rain = 0
KGU1 112347Z 12006KT 35/03 A3022 RMK A01 T03530025  RH  013%=      5-min Rain = 0
KGU1 112348Z 10006KT 35/03 A3022 RMK A01 T03530028  RH  013%=      5-min Rain = 0
KGU1 112349Z 10006KT 35/03 A3022 RMK A01 T03540033  RH  014%=      5-min Rain = 0
KGU1 112350Z 10008KT 36/03 A3022 RMK A01 T03550030  RH  013%=      5-min Rain = 0
KGU1 112351Z 11010KT 36/03 A3022 RMK A01 T03560029  RH  013%=      5-min Rain = 0
KGU1 112352Z 09008KT 35/03 A3022 RMK A01 T03540026  RH  013%=      5-min Rain = 0
KGU1 112353Z 09007KT 35/03 A3021 RMK A01 T03530031  RH  014%=      5-min Rain = 0
KGU1 112354Z 09010KT 36/03 A3021 RMK A01 T03550033  RH  014%=      5-min Rain = 0
KGU1 112355Z 09012KT 36/03 A3021 RMK A01 T03560031  RH  013%=      5-min Rain = 0
KGU1 112356Z 09015KT 36/03 A3021 RMK A01 T03550027  RH  013%=      5-min Rain = 0
KGU1 112357Z 10013KT 35/03 A3021 RMK A01 T03540027  RH  013%=      5-min Rain = 0
KGU1 112358Z 09012KT 35/03 A3021 RMK A01 T03530026  RH  013%=      5-min Rain = 0
KGU1 112359Z 11014KT 35/03 A3021 RMK A01 T03530025  RH  013%=      5-min Rain = 0
KGU1 120000Z 11013KT 35/02 A3021 RMK A01 T03530024  RH  013%=      5-min Rain = 0
KGU1 120001Z 10012KT 35/03 A3021 RMK A01 T03530027  RH  013%=      5-min Rain = 0
KGU1 120002Z 11010KT 36/03 A3022 RMK A01 T03550029  RH  013%=      5-min Rain = 0
KGU1 120003Z 09007KT 35/03 A3022 RMK A01 T03540027  RH  013%=      5-min Rain = 0
KGU1 120004Z 08006KT 35/03 A3021 RMK A01 T03530025  RH  013%=      5-min Rain = 0
KGU1 120005Z 10006KT 35/03 A3022 RMK A01 T03520026  RH  013%=      5-min Rain = 0
KGU1 120006Z 11009KT 35/03 A3022 RMK A01 T03520028  RH  013%=      5-min Rain = 0
KGU1 120007Z 13008KT 35/03 A3021 RMK A01 T03530027  RH  013%=      5-min Rain = 0
KGU1 120008Z 13008KT 35/03 A3021 RMK A01 T03540025  RH  013%=      5-min Rain = 0
KGU1 120009Z 11008KT 35/02 A3021 RMK A01 T03540024  RH  013%=      5-min Rain = 0
KGU1 120010Z 13011KT 35/02 A3022 RMK A01 T03530024  RH  013%=      5-min Rain = 0
KGU1 120011Z 13009KT 35/02 A3021 RMK A01 T03530023  RH  013%=      5-min Rain = 0
KGU1 120012Z 12008KT 35/03 A3021 RMK A01 T03520025  RH  013%=      5-min Rain = 0
KGU1 120013Z 12007KT 35/02 A3021 RMK A01 T03520022  RH  013%=      5-min Rain = 0
KGU1 120014Z 12010G15KT 35/03 A3022 RMK A01 T03520026  RH  013%=      5-min Rain = 0
KGU1 120015Z 13012KT 35/02 A3021 RMK A01 T03530023  RH  013%=      5-min Rain = 0
KGU1 120016Z 14010KT 35/02 A3021 RMK A01 T03530024  RH  013%=      5-min Rain = 0
KGU1 120017Z 15010KT 35/02 A3021 RMK A01 T03520022  RH  013%=      5-min Rain = 0
KGU1 120018Z 12008KT 35/03 A3021 RMK A01 T03520025  RH  013%=      5-min Rain = 0
KGU1 120019Z 09008G13KT 35/03 A3021 RMK A01 T03530028  RH  013%=      5-min Rain = 0
KGU1 120020Z 11013KT 35/03 A3021 RMK A01 T03530028  RH  013%=      5-min Rain = 0
KGU1 120021Z 11012KT 35/03 A3021 RMK A01 T03530026  RH  013%=      5-min Rain = 0
KGU1 120022Z 11009KT 35/03 A3022 RMK A01 T03520028  RH  013%=      5-min Rain = 0
KGU1 120023Z 11011KT 35/03 A3022 RMK A01 T03530026  RH  013%=      5-min Rain = 0
KGU1 120024Z 09012KT 35/03 A3022 RMK A01 T03520026  RH  013%=      5-min Rain = 0
KGU1 120025Z 09014KT 35/03 A3022 RMK A01 T03510025  RH  013%=      5-min Rain = 0
KGU1 120026Z 09011KT 35/03 A3022 RMK A01 T03490025  RH  013%=      5-min Rain = 0
KGU1 120027Z 09007KT 35/02 A3022 RMK A01 T03490023  RH  013%=      5-min Rain = 0
KGU1 120028Z 12009KT 35/03 A3022 RMK A01 T03490025  RH  013%=      5-min Rain = 0
KGU1 120029Z 12006KT 35/02 A3022 RMK A01 T03490023  RH  013%=      5-min Rain = 0
KGU1 120030Z 11005KT 35/02 A3022 RMK A01 T03490024  RH  013%=      5-min Rain = 0
KGU1 120031Z 10005KT 35/03 A3022 RMK A01 T03490028  RH  014%=      5-min Rain = 0
KGU1 120032Z 10008KT 35/03 A3022 RMK A01 T03500026  RH  013%=      5-min Rain = 0
KGU1 120033Z 11009KT 35/03 A3022 RMK A01 T03500025  RH  013%=      5-min Rain = 0
KGU1 120034Z 12005KT 35/03 A3022 RMK A01 T03500027  RH  013%=      5-min Rain = 0
KGU1 120035Z 11005KT 35/03 A3022 RMK A01 T03510027  RH  013%=      5-min Rain = 0
KGU1 120036Z 10010KT 35/03 A3022 RMK A01 T03510027  RH  013%=      5-min Rain = 0
KGU1 120037Z 11012KT 35/02 A3022 RMK A01 T03500024  RH  013%=      5-min Rain = 0
KGU1 120038Z 11012KT 35/02 A3022 RMK A01 T03490023  RH  013%=      5-min Rain = 0
KGU1 120039Z 11009KT 35/02 A3022 RMK A01 T03490023  RH  013%=      5-min Rain = 0
KGU1 120040Z 11009KT 35/02 A3022 RMK A01 T03490024  RH  013%=      5-min Rain = 0
KGU1 120041Z 11012KT 35/02 A3022 RMK A01 T03480023  RH  013%=      5-min Rain = 0
KGU1 120042Z 10009KT 35/02 A3022 RMK A01 T03480022  RH  013%=      5-min Rain = 0
KGU1 120043Z 12011KT 35/02 A3022 RMK A01 T03470023  RH  013%=      5-min Rain = 0
KGU1 120044Z 11011KT 35/02 A3021 RMK A01 T03470024  RH  013%=      5-min Rain = 0
KGU1 120045Z 11013KT 35/02 A3021 RMK A01 T03470024  RH  013%=      5-min Rain = 0
KGU1 120046Z 12012KT 35/02 A3022 RMK A01 T03460022  RH  013%=      5-min Rain = 0
KGU1 120047Z 12011KT 35/02 A3022 RMK A01 T03460023  RH  013%=      5-min Rain = 0
KGU1 120048Z 12009KT 35/03 A3022 RMK A01 T03460025  RH  014%=      5-min Rain = 0
KGU1 120049Z 11008KT 35/02 A3022 RMK A01 T03460024  RH  013%=      5-min Rain = 0
KGU1 120050Z 10010KT 35/03 A3022 RMK A01 T03460025  RH  014%=      5-min Rain = 0
KGU1 120051Z 11009KT 35/03 A3022 RMK A01 T03450025  RH  014%=      5-min Rain = 0
KGU1 120052Z 11008KT 35/03 A3022 RMK A01 T03460026  RH  014%=      5-min Rain = 0
KGU1 120053Z 11008KT 35/03 A3022 RMK A01 T03460026  RH  014%=      5-min Rain = 0
KGU1 120054Z 11010KT 35/02 A3022 RMK A01 T03460024  RH  013%=      5-min Rain = 0
KGU1 120055Z 11010KT 35/03 A3022 RMK A01 T03450025  RH  014%=      5-min Rain = 0
KGU1 120056Z 11008KT 35/03 A3022 RMK A01 T03450025  RH  014%=      5-min Rain = 0
KGU1 120057Z 11009KT 35/02 A3022 RMK A01 T03450024  RH  014%=      5-min Rain = 0
KGU1 120058Z 11008KT 35/03 A3022 RMK A01 T03450026  RH  014%=      5-min Rain = 0
KGU1 120059Z 11010KT 35/02 A3022 RMK A01 T03450024  RH  013%=      5-min Rain = 0
KGU1 120100Z 10008KT 34/02 A3022 RMK A01 T03440024  RH  014%=      5-min Rain = 0
KGU1 120101Z 10007KT 34/02 A3022 RMK A01 T03430023  RH  014%=      5-min Rain = 0
KGU1 120102Z 11007KT 34/03 A3022 RMK A01 T03430026  RH  014%=      5-min Rain = 0
KGU1 120103Z 10009KT 34/03 A3022 RMK A01 T03420025  RH  014%=      5-min Rain = 0
KGU1 120104Z 11011KT 34/02 A3021 RMK A01 T03420023  RH  014%=      5-min Rain = 0
KGU1 120105Z 11009KT 34/02 A3021 RMK A01 T03420023  RH  014%=      5-min Rain = 0
KGU1 120106Z 11009KT 34/03 A3022 RMK A01 T03410025  RH  014%=      5-min Rain = 0
KGU1 120107Z 11010KT 34/02 A3021 RMK A01 T03410024  RH  014%=      5-min Rain = 0
KGU1 120108Z 11008KT 34/03 A3021 RMK A01 T03410025  RH  014%=      5-min Rain = 0
KGU1 120109Z 12010KT 34/02 A3021 RMK A01 T03410023  RH  014%=      5-min Rain = 0
KGU1 120110Z 13008KT 34/03 A3021 RMK A01 T03410025  RH  014%=      5-min Rain = 0
KGU1 120111Z 12008KT 34/03 A3021 RMK A01 T03410027  RH  014%=      5-min Rain = 0
KGU1 120112Z 13009KT 34/03 A3021 RMK A01 T03410025  RH  014%=      5-min Rain = 0
KGU1 120113Z 12008KT 34/02 A3021 RMK A01 T03400024  RH  014%=      5-min Rain = 0
KGU1 120114Z 12008KT 34/03 A3021 RMK A01 T03400025  RH  014%=      5-min Rain = 0
KGU1 120115Z 11008KT 34/03 A3021 RMK A01 T03400026  RH  014%=      5-min Rain = 0
KGU1 120116Z 11009KT 34/02 A3021 RMK A01 T03390023  RH  014%=      5-min Rain = 0
KGU1 120117Z 11010KT 34/02 A3021 RMK A01 T03390024  RH  014%=      5-min Rain = 0
KGU1 120118Z 11011KT 34/02 A3021 RMK A01 T03390024  RH  014%=      5-min Rain = 0
KGU1 120119Z 11010KT 34/03 A3021 RMK A01 T03390025  RH  014%=      5-min Rain = 0
KGU1 120120Z 11010KT 34/03 A3021 RMK A01 T03380025  RH  014%=      5-min Rain = 0
KGU1 120121Z 10009KT 34/03 A3021 RMK A01 T03380025  RH  014%=      5-min Rain = 0
KGU1 120122Z 10009KT 34/03 A3021 RMK A01 T03370026  RH  014%=      5-min Rain = 0
KGU1 120123Z 10010KT 34/03 A3021 RMK A01 T03360025  RH  014%=      5-min Rain = 0
KGU1 120124Z 10009KT 34/03 A3021 RMK A01 T03350025  RH  014%=      5-min Rain = 0
KGU1 120125Z 10008KT 34/03 A3021 RMK A01 T03350026  RH  014%=      5-min Rain = 0
KGU1 120126Z 10006KT 33/03 A3021 RMK A01 T03330026  RH  015%=      5-min Rain = 0
KGU1 120127Z 11009KT 33/03 A3021 RMK A01 T03320026  RH  015%=      5-min Rain = 0
KGU1 120128Z 11008KT 33/03 A3021 RMK A01 T03320025  RH  015%=      5-min Rain = 0
KGU1 120129Z 11008KT 33/03 A3021 RMK A01 T03310026  RH  015%=      5-min Rain = 0
KGU1 120130Z 10008KT 33/03 A3021 RMK A01 T03310026  RH  015%=      5-min Rain = 0
KGU1 120131Z 11009KT 33/03 A3021 RMK A01 T03300025  RH  015%=      5-min Rain = 0
KGU1 120132Z 11008KT 33/02 A3022 RMK A01 T03310024  RH  015%=      5-min Rain = 0
KGU1 120133Z 11008KT 33/03 A3022 RMK A01 T03300025  RH  015%=      5-min Rain = 0
KGU1 120134Z 09006KT 33/03 A3022 RMK A01 T03300026  RH  015%=      5-min Rain = 0
KGU1 120135Z 09005KT 33/03 A3022 RMK A01 T03290029  RH  015%=      5-min Rain = 0
KGU1 120136Z 10006KT 33/03 A3022 RMK A01 T03270029  RH  015%=      5-min Rain = 0
KGU1 120137Z 10007KT 33/03 A3022 RMK A01 T03260027  RH  015%=      5-min Rain = 0
KGU1 120138Z 10006KT 33/03 A3022 RMK A01 T03260027  RH  015%=      5-min Rain = 0
KGU1 120139Z 10008KT 33/03 A3022 RMK A01 T03260027  RH  015%=      5-min Rain = 0
KGU1 120140Z 10007KT 33/03 A3022 RMK A01 T03270027  RH  015%=      5-min Rain = 0
KGU1 120141Z 10005KT 33/03 A3022 RMK A01 T03260028  RH  015%=      5-min Rain = 0
KGU1 120142Z 10006KT 33/03 A3022 RMK A01 T03250028  RH  016%=      5-min Rain = 0
KGU1 120143Z 10006KT 33/03 A3022 RMK A01 T03250027  RH  015%=      5-min Rain = 0
KGU1 120144Z 10006KT 33/03 A3022 RMK A01 T03250028  RH  016%=      5-min Rain = 0
KGU1 120145Z 10005KT 32/03 A3022 RMK A01 T03240028  RH  016%=      5-min Rain = 0
KGU1 120146Z 09004KT 32/03 A3022 RMK A01 T03230029  RH  016%=      5-min Rain = 0
KGU1 120147Z 09003KT 32/03 A3022 RMK A01 T03220029  RH  016%=      5-min Rain = 0
KGU1 120148Z 09003KT 32/03 A3022 RMK A01 T03210029  RH  016%=      5-min Rain = 0
KGU1 120149Z 09002KT 32/03 A3022 RMK A01 T03200031  RH  016%=      5-min Rain = 0
KGU1 120150Z 09002KT 32/03 A3022 RMK A01 T03200030  RH  016%=      5-min Rain = 0
KGU1 120151Z 10003KT 32/03 A3022 RMK A01 T03190030  RH  016%=      5-min Rain = 0
KGU1 120152Z 11003KT 32/03 A3022 RMK A01 T03180028  RH  016%=      5-min Rain = 0
KGU1 120153Z 10002KT 32/03 A3022 RMK A01 T03190028  RH  016%=      5-min Rain = 0
KGU1 120154Z 11002KT 32/03 A3022 RMK A01 T03180029  RH  016%=      5-min Rain = 0
KGU1 120155Z 11003KT 32/03 A3022 RMK A01 T03180029  RH  016%=      5-min Rain = 0
KGU1 120156Z 11003KT 32/03 A3022 RMK A01 T03170029  RH  016%=      5-min Rain = 0
KGU1 120157Z 12002KT 32/03 A3022 RMK A01 T03150029  RH  017%=      5-min Rain = 0
KGU1 120158Z 11001KT 31/03 A3022 RMK A01 T03140028  RH  016%=      5-min Rain = 0
KGU1 120159Z 10002KT 31/03 A3022 RMK A01 T03140026  RH  016%=      5-min Rain = 0
KGU1 120200Z 10002KT 31/03 A3022 RMK A01 T03140028  RH  017%=      5-min Rain = 0
KGU1 120201Z 10003KT 31/03 A3022 RMK A01 T03140030  RH  017%=      5-min Rain = 0
KGU1 120202Z 09002KT 31/03 A3022 RMK A01 T03120029  RH  017%=      5-min Rain = 0
KGU1 120203Z 08002KT 31/03 A3022 RMK A01 T03120030  RH  017%=      5-min Rain = 0
KGU1 120204Z 08002KT 31/03 A3022 RMK A01 T03110030  RH  017%=      5-min Rain = 0
KGU1 120205Z 02001KT 31/04 A3023 RMK A01 T03090037  RH  018%=      5-min Rain = 0
KGU1 120206Z 06001KT 31/04 A3023 RMK A01 T03060039  RH  019%=      5-min Rain = 0
KGU1 120207Z 03001KT 30/04 A3023 RMK A01 T03030036  RH  019%=      5-min Rain = 0
KGU1 120208Z 02002KT 30/04 A3023 RMK A01 T03020036  RH  019%=      5-min Rain = 0
KGU1 120209Z 02002KT 30/04 A3023 RMK A01 T03010035  RH  019%=      5-min Rain = 0
KGU1 120210Z 00002KT 30/03 A3023 RMK A01 T03000033  RH  019%=      5-min Rain = 0
KGU1 120211Z 01002KT 30/03 A3023 RMK A01 T03020029  RH  018%=      5-min Rain = 0
KGU1 120212Z 01001KT 30/03 A3023 RMK A01 T03040027  RH  017%=      5-min Rain = 0
KGU1 120213Z 34001KT 31/03 A3023 RMK A01 T03050027  RH  017%=      5-min Rain = 0
KGU1 120214Z 35001KT 31/03 A3023 RMK A01 T03050028  RH  017%=      5-min Rain = 0
KGU1 120215Z 33001KT 31/03 A3022 RMK A01 T03060029  RH  017%=      5-min Rain = 0
KGU1 120216Z 33003KT 31/03 A3022 RMK A01 T03070026  RH  017%=      5-min Rain = 0
KGU1 120217Z 35003KT 31/03 A3022 RMK A01 T03090026  RH  017%=      5-min Rain = 0
KGU1 120218Z 00002KT 31/03 A3023 RMK A01 T03090027  RH  017%=      5-min Rain = 0
KGU1 120219Z 36001KT 31/03 A3023 RMK A01 T03090026  RH  017%=      5-min Rain = 0
KGU1 120220Z 34002KT 31/03 A3023 RMK A01 T03090028  RH  017%=      5-min Rain = 0
KGU1 120221Z 34002KT 31/03 A3023 RMK A01 T03090025  RH  017%=      5-min Rain = 0
KGU1 120222Z 34003KT 31/03 A3023 RMK A01 T03100026  RH  017%=      5-min Rain = 0
KGU1 120223Z 35002KT 31/03 A3023 RMK A01 T03100029  RH  017%=      5-min Rain = 0
KGU1 120224Z 35002KT 31/03 A3023 RMK A01 T03080027  RH  017%=      5-min Rain = 0
KGU1 120225Z 34002KT 31/03 A3023 RMK A01 T03080026  RH  017%=      5-min Rain = 0
KGU1 120226Z 32002KT 31/03 A3023 RMK A01 T03080027  RH  017%=      5-min Rain = 0
KGU1 120227Z 31003KT 31/03 A3023 RMK A01 T03070026  RH  017%=      5-min Rain = 0
KGU1 120228Z 33002KT 31/02 A3023 RMK A01 T03080024  RH  017%=      5-min Rain = 0
KGU1 120229Z 35001KT 31/03 A3023 RMK A01 T03100025  RH  017%=      5-min Rain = 0
KGU1 120230Z 35001KT 31/03 A3023 RMK A01 T03110025  RH  016%=      5-min Rain = 0
KGU1 120231Z 35001KT 31/03 A3023 RMK A01 T03100026  RH  017%=      5-min Rain = 0
KGU1 120232Z 33001KT 31/03 A3023 RMK A01 T03100025  RH  017%=      5-min Rain = 0
KGU1 120233Z 00002KT 31/02 A3023 RMK A01 T03100024  RH  016%=      5-min Rain = 0
KGU1 120234Z 00003KT 31/03 A3023 RMK A01 T03110025  RH  016%=      5-min Rain = 0
KGU1 120235Z 35003KT 31/03 A3023 RMK A01 T03110028  RH  017%=      5-min Rain = 0
KGU1 120236Z 34002KT 31/03 A3023 RMK A01 T03100028  RH  017%=      5-min Rain = 0
KGU1 120237Z 33002KT 31/03 A3023 RMK A01 T03080029  RH  017%=      5-min Rain = 0
KGU1 120238Z 33001KT 31/03 A3023 RMK A01 T03070027  RH  017%=      5-min Rain = 0
KGU1 120239Z 33002KT 31/03 A3023 RMK A01 T03080026  RH  017%=      5-min Rain = 0
KGU1 120240Z 33002KT 31/03 A3023 RMK A01 T03090028  RH  017%=      5-min Rain = 0
KGU1 120241Z 34002KT 31/03 A3023 RMK A01 T03080028  RH  017%=      5-min Rain = 0
KGU1 120242Z 35003KT 31/03 A3023 RMK A01 T03070029  RH  017%=      5-min Rain = 0
KGU1 120243Z 34002KT 31/03 A3023 RMK A01 T03060030  RH  018%=      5-min Rain = 0
KGU1 120244Z 02002KT 31/03 A3023 RMK A01 T03050031  RH  018%=      5-min Rain = 0
KGU1 120245Z 03001KT 30/03 A3023 RMK A01 T03040032  RH  018%=      5-min Rain = 0
KGU1 120246Z 01003KT 30/03 A3023 RMK A01 T03020033  RH  018%=      5-min Rain = 0
KGU1 120247Z 36002KT 30/04 A3023 RMK A01 T02990038  RH  019%=      5-min Rain = 0
KGU1 120248Z 01002KT 29/04 A3023 RMK A01 T02940037  RH  020%=      5-min Rain = 0
KGU1 120249Z 36003KT 29/03 A3023 RMK A01 T02930034  RH  019%=      5-min Rain = 0
KGU1 120250Z 35003KT 29/03 A3023 RMK A01 T02920034  RH  020%=      5-min Rain = 0
KGU1 120251Z 01003KT 29/03 A3023 RMK A01 T02910034  RH  020%=      5-min Rain = 0
KGU1 120252Z 02003KT 29/04 A3023 RMK A01 T02910035  RH  020%=      5-min Rain = 0
KGU1 120253Z 01002KT 29/03 A3023 RMK A01 T02910031  RH  019%=      5-min Rain = 0
KGU1 120254Z 35003KT 29/03 A3023 RMK A01 T02940031  RH  019%=      5-min Rain = 0
KGU1 120255Z 35002KT 30/03 A3023 RMK A01 T02950032  RH  019%=      5-min Rain = 0
KGU1 120256Z 35002KT 30/03 A3023 RMK A01 T02950032  RH  019%=      5-min Rain = 0
KGU1 120257Z 33002KT 30/03 A3023 RMK A01 T02960033  RH  019%=      5-min Rain = 0
KGU1 120258Z 32002KT 30/04 A3023 RMK A01 T02950036  RH  020%=      5-min Rain = 0
KGU1 120259Z 32003KT 29/04 A3023 RMK A01 T02940037  RH  020%=      5-min Rain = 0
KGU1 120300Z 31003KT 29/04 A3023 RMK A01 T02910038  RH  020%=      5-min Rain = 0
KGU1 120301Z 29003KT 29/04 A3024 RMK A01 T02890036  RH  020%=      5-min Rain = 0
KGU1 120302Z 29003KT 29/04 A3024 RMK A01 T02870038  RH  021%=      5-min Rain = 0
KGU1 120303Z 29003KT 29/04 A3024 RMK A01 T02860036  RH  020%=      5-min Rain = 0
KGU1 120304Z 30002KT 29/04 A3024 RMK A01 T02870036  RH  021%=      5-min Rain = 0
KGU1 120305Z 34002KT 29/04 A3024 RMK A01 T02860037  RH  021%=      5-min Rain = 0
KGU1 120306Z 31002KT 29/04 A3024 RMK A01 T02860039  RH  021%=      5-min Rain = 0
KGU1 120307Z 31002KT 28/04 A3024 RMK A01 T02830040  RH  022%=      5-min Rain = 0
KGU1 120308Z 32003KT 28/04 A3024 RMK A01 T02810039  RH  022%=      5-min Rain = 0
KGU1 120309Z 31002KT 28/04 A3024 RMK A01 T02810037  RH  021%=      5-min Rain = 0
KGU1 120310Z 32002KT 28/04 A3024 RMK A01 T02830038  RH  021%=      5-min Rain = 0
KGU1 120311Z 32002KT 28/04 A3024 RMK A01 T02840037  RH  021%=      5-min Rain = 0
KGU1 120312Z 31002KT 29/04 A3024 RMK A01 T02850037  RH  021%=      5-min Rain = 0
KGU1 120313Z 31003KT 29/04 A3024 RMK A01 T02860038  RH  021%=      5-min Rain = 0
KGU1 120314Z 31003KT 29/04 A3024 RMK A01 T02850040  RH  021%=      5-min Rain = 0
KGU1 120315Z 32002KT 28/04 A3024 RMK A01 T02840041  RH  022%=      5-min Rain = 0
KGU1 120316Z 32003KT 28/04 A3024 RMK A01 T02820043  RH  022%=      5-min Rain = 0
KGU1 120317Z 33003KT 28/04 A3024 RMK A01 T02820039  RH  021%=      5-min Rain = 0
KGU1 120318Z 34003KT 29/04 A3024 RMK A01 T02870036  RH  020%=      5-min Rain = 0
KGU1 120319Z 33002KT 29/04 A3024 RMK A01 T02900040  RH  021%=      5-min Rain = 0
KGU1 120320Z 33003KT 29/04 A3024 RMK A01 T02880041  RH  021%=      5-min Rain = 0
KGU1 120321Z 32002KT 29/04 A3024 RMK A01 T02860042  RH  022%=      5-min Rain = 0
KGU1 120322Z 33002KT 29/04 A3024 RMK A01 T02850040  RH  021%=      5-min Rain = 0
KGU1 120323Z 31002KT 29/04 A3024 RMK A01 T02850041  RH  021%=      5-min Rain = 0
KGU1 120324Z 33002KT 28/04 A3024 RMK A01 T02840043  RH  022%=      5-min Rain = 0
KGU1 120325Z 33002KT 28/04 A3024 RMK A01 T02820044  RH  022%=      5-min Rain = 0
KGU1 120326Z 36002KT 28/04 A3024 RMK A01 T02820044  RH  022%=      5-min Rain = 0
KGU1 120327Z 36002KT 28/04 A3024 RMK A01 T02810043  RH  022%=      5-min Rain = 0
KGU1 120328Z 35004KT 28/04 A3025 RMK A01 T02830039  RH  021%=      5-min Rain = 0
KGU1 120329Z 01004KT 29/04 A3025 RMK A01 T02880040  RH  021%=      5-min Rain = 0
KGU1 120330Z 34003KT 29/04 A3025 RMK A01 T02890042  RH  021%=      5-min Rain = 0
KGU1 120331Z 34002KT 29/05 A3025 RMK A01 T02890046  RH  022%=      5-min Rain = 0
KGU1 120332Z 33002KT 29/05 A3025 RMK A01 T02860045  RH  022%=      5-min Rain = 0
KGU1 120333Z 34003KT 29/04 A3025 RMK A01 T02870038  RH  021%=      5-min Rain = 0
KGU1 120334Z 34002KT 29/04 A3025 RMK A01 T02920039  RH  020%=      5-min Rain = 0
KGU1 120335Z 34002KT 29/04 A3025 RMK A01 T02940042  RH  021%=      5-min Rain = 0
KGU1 120336Z 35002KT 29/04 A3025 RMK A01 T02920042  RH  021%=      5-min Rain = 0
KGU1 120337Z 34000KT 30/04 A3025 RMK A01 T02950036  RH  020%=      5-min Rain = 0
KGU1 120338Z 01001KT 30/05 A3025 RMK A01 T02970046  RH  021%=      5-min Rain = 0
KGU1 120339Z 01002KT 29/05 A3025 RMK A01 T02920046  RH  021%=      5-min Rain = 0
KGU1 120340Z 00001KT 29/04 A3025 RMK A01 T02880044  RH  021%=      5-min Rain = 0
KGU1 120341Z 34001KT 29/04 A3025 RMK A01 T02870042  RH  021%=      5-min Rain = 0
KGU1 120342Z 01002KT 29/04 A3025 RMK A01 T02870041  RH  021%=      5-min Rain = 0
KGU1 120343Z 01001KT 29/04 A3025 RMK A01 T02880038  RH  021%=      5-min Rain = 0
KGU1 120344Z 02000KT 29/04 A3025 RMK A01 T02890038  RH  021%=      5-min Rain = 0
KGU1 120345Z 34000KT 29/04 A3025 RMK A01 T02910037  RH  020%=      5-min Rain = 0
KGU1 120346Z 32002KT 29/04 A3025 RMK A01 T02930038  RH  020%=      5-min Rain = 0
KGU1 120347Z 32002KT 29/04 A3025 RMK A01 T02940043  RH  021%=      5-min Rain = 0
KGU1 120348Z 33001KT 29/04 A3026 RMK A01 T02890043  RH  021%=      5-min Rain = 0
KGU1 120349Z 02000KT 29/04 A3026 RMK A01 T02890037  RH  020%=      5-min Rain = 0
KGU1 120350Z 35001KT 29/04 A3025 RMK A01 T02930038  RH  020%=      5-min Rain = 0
KGU1 120351Z 35003KT 29/04 A3025 RMK A01 T02920044  RH  021%=      5-min Rain = 0
KGU1 120352Z 00001KT 29/05 A3025 RMK A01 T02880045  RH  022%=      5-min Rain = 0
KGU1 120353Z 35002KT 29/05 A3025 RMK A01 T02850045  RH  022%=      5-min Rain = 0
KGU1 120354Z 33002KT 28/04 A3025 RMK A01 T02840044  RH  022%=      5-min Rain = 0
KGU1 120355Z 29002KT 28/04 A3026 RMK A01 T02840041  RH  022%=      5-min Rain = 0
KGU1 120356Z 29001KT 28/04 A3026 RMK A01 T02840041  RH  022%=      5-min Rain = 0
KGU1 120357Z 29001KT 29/04 A3026 RMK A01 T02860039  RH  021%=      5-min Rain = 0
KGU1 120358Z 34000KT 29/04 A3026 RMK A01 T02870039  RH  021%=      5-min Rain = 0
KGU1 120359Z 01002KT 29/04 A3026 RMK A01 T02900037  RH  020%=      5-min Rain = 0
KGU1 120400Z 05001KT 29/04 A3026 RMK A01 T02940035  RH  020%=      5-min Rain = 0
KGU1 120401Z 09000KT 30/04 A3026 RMK A01 T02960038  RH  020%=      5-min Rain = 0
KGU1 120402Z 08003KT 30/04 A3026 RMK A01 T02960036  RH  019%=      5-min Rain = 0
KGU1 120403Z 07003KT 30/04 A3026 RMK A01 T02960036  RH  019%=      5-min Rain = 0
KGU1 120404Z 07002KT 30/04 A3026 RMK A01 T02970038  RH  020%=      5-min Rain = 0
KGU1 120405Z 04001KT 30/04 A3026 RMK A01 T02960038  RH  020%=      5-min Rain = 0
KGU1 120406Z 06002KT 30/04 A3026 RMK A01 T02960037  RH  020%=      5-min Rain = 0
KGU1 120407Z 02002KT 30/04 A3026 RMK A01 T02960037  RH  020%=      5-min Rain = 0
KGU1 120408Z 36002KT 30/04 A3026 RMK A01 T02950040  RH  020%=      5-min Rain = 0
KGU1 120409Z 02002KT 29/04 A3026 RMK A01 T02920038  RH  020%=      5-min Rain = 0
KGU1 120410Z 03001KT 29/04 A3026 RMK A01 T02910040  RH  021%=      5-min Rain = 0
KGU1 120411Z 02002KT 29/04 A3026 RMK A01 T02900038  RH  020%=      5-min Rain = 0
KGU1 120412Z 02002KT 29/04 A3026 RMK A01 T02900040  RH  021%=      5-min Rain = 0
KGU1 120413Z 04001KT 29/04 A3026 RMK A01 T02890041  RH  021%=      5-min Rain = 0
KGU1 120414Z 01002KT 29/04 A3026 RMK A01 T02860041  RH  021%=      5-min Rain = 0
KGU1 120415Z 00002KT 28/04 A3026 RMK A01 T02840038  RH  021%=      5-min Rain = 0
KGU1 120416Z 35003KT 29/03 A3026 RMK A01 T02850034  RH  020%=      5-min Rain = 0
KGU1 120417Z 00004KT 29/04 A3026 RMK A01 T02890038  RH  021%=      5-min Rain = 0
KGU1 120418Z 02004KT 29/04 A3026 RMK A01 T02870041  RH  021%=      5-min Rain = 0
KGU1 120419Z 00003KT 29/04 A3026 RMK A01 T02850041  RH  021%=      5-min Rain = 0
KGU1 120420Z 29001KT 28/04 A3026 RMK A01 T02830041  RH  022%=      5-min Rain = 0
KGU1 120421Z 22003KT 28/04 A3026 RMK A01 T02810041  RH  022%=      5-min Rain = 0
KGU1 120422Z 25001KT 28/04 A3026 RMK A01 T02810036  RH  021%=      5-min Rain = 0
KGU1 120423Z 02000KT 29/03 A3026 RMK A01 T02850033  RH  020%=      5-min Rain = 0
KGU1 120424Z 27001KT 29/03 A3026 RMK A01 T02870034  RH  020%=      5-min Rain = 0
KGU1 120425Z 32002KT 29/04 A3026 RMK A01 T02880036  RH  020%=      5-min Rain = 0
KGU1 120426Z 35001KT 29/04 A3026 RMK A01 T02870037  RH  021%=      5-min Rain = 0
KGU1 120427Z 00001KT 29/04 A3026 RMK A01 T02870036  RH  020%=      5-min Rain = 0
KGU1 120428Z 34001KT 29/04 A3026 RMK A01 T02870037  RH  021%=      5-min Rain = 0
KGU1 120429Z 33003KT 29/04 A3026 RMK A01 T02870035  RH  020%=      5-min Rain = 0
KGU1 120430Z 34003KT 29/04 A3026 RMK A01 T02880035  RH  020%=      5-min Rain = 0
KGU1 120431Z 33003KT 29/04 A3026 RMK A01 T02900038  RH  020%=      5-min Rain = 0
KGU1 120432Z 31001KT 29/04 A3026 RMK A01 T02860038  RH  021%=      5-min Rain = 0
KGU1 120433Z 31001KT 29/03 A3026 RMK A01 T02850034  RH  020%=      5-min Rain = 0
KGU1 120434Z 32001KT 29/03 A3026 RMK A01 T02880033  RH  020%=      5-min Rain = 0
KGU1 120435Z 36002KT 29/03 A3026 RMK A01 T02910033  RH  020%=      5-min Rain = 0
KGU1 120436Z 35003KT 29/04 A3026 RMK A01 T02920035  RH  020%=      5-min Rain = 0
KGU1 120437Z 35003KT 29/04 A3026 RMK A01 T02910038  RH  020%=      5-min Rain = 0
KGU1 120438Z 36002KT 29/04 A3026 RMK A01 T02870040  RH  021%=      5-min Rain = 0
KGU1 120439Z 04002KT 28/04 A3026 RMK A01 T02840040  RH  021%=      5-min Rain = 0
KGU1 120440Z 06003KT 28/04 A3026 RMK A01 T02820039  RH  022%=      5-min Rain = 0
KGU1 120441Z 05003KT 28/04 A3026 RMK A01 T02820038  RH  021%=      5-min Rain = 0
KGU1 120442Z 04003KT 28/04 A3026 RMK A01 T02830035  RH  021%=      5-min Rain = 0
KGU1 120443Z 02003KT 29/04 A3026 RMK A01 T02860037  RH  021%=      5-min Rain = 0
KGU1 120444Z 03002KT 29/04 A3026 RMK A01 T02880037  RH  020%=      5-min Rain = 0
KGU1 120445Z 04002KT 29/04 A3026 RMK A01 T02880037  RH  020%=      5-min Rain = 0
KGU1 120446Z 06001KT 29/04 A3026 RMK A01 T02890037  RH  020%=      5-min Rain = 0
KGU1 120447Z 05000KT 29/04 A3026 RMK A01 T02890037  RH  020%=      5-min Rain = 0
KGU1 120448Z 33002KT 29/04 A3026 RMK A01 T02890037  RH  020%=      5-min Rain = 0
KGU1 120449Z 34003KT 29/04 A3026 RMK A01 T02890038  RH  021%=      5-min Rain = 0
KGU1 120450Z 01003KT 29/04 A3026 RMK A01 T02880041  RH  021%=      5-min Rain = 0
KGU1 120451Z 02002KT 29/04 A3026 RMK A01 T02850042  RH  022%=      5-min Rain = 0
KGU1 120452Z 03002KT 28/04 A3026 RMK A01 T02830042  RH  022%=      5-min Rain = 0
KGU1 120453Z 04002KT 28/04 A3026 RMK A01 T02820041  RH  022%=      5-min Rain = 0
KGU1 120454Z 06004KT 28/04 A3026 RMK A01 T02820042  RH  022%=      5-min Rain = 0
KGU1 120455Z 04003KT 28/04 A3026 RMK A01 T02810042  RH  022%=      5-min Rain = 0
KGU1 120456Z 04003KT 28/04 A3026 RMK A01 T02800041  RH  022%=      5-min Rain = 0
KGU1 120457Z 03003KT 28/04 A3026 RMK A01 T02820039  RH  022%=      5-min Rain = 0
KGU1 120458Z 35003KT 29/04 A3026 RMK A01 T02850040  RH  021%=      5-min Rain = 0
KGU1 120459Z 01002KT 29/04 A3026 RMK A01 T02880039  RH  021%=      5-min Rain = 0

Page generated in 0.1227 seconds.